Flight Track Log - Related Links

Times and Time Zones

All times are in EDT time to prevent confusion due to time zone crossing. See the UAL139 flight status page for this flight to view local times or setup timezone preferences in your user account.

Time Position Orientation Groundspeed Altitude Reporting Facility
EDT Latitude Longitude Course Direction KTS MPH feet Rate Location/Type
Sun 03:37:03 PM 39.8640 -104.6960 270° West 134 154 5,300  Level FlightAware ADS-B
Sun 03:37:24 PM 39.8800 -104.6960 360° North 193 222 5,500 1,636 Climbing FlightAware ADS-B
Sun 03:37:58 PM 39.9120 -104.6950 North 197 227 6,800 1,535 Climbing FlightAware ADS-B
Sun 03:38:50 PM 39.9660 -104.7100 348° North 263 303 7,700 1,620 Climbing FlightAware ADS-B
Sun 03:39:38 PM 40.0270 -104.7270 348° North 285 328 9,500 1,725 Climbing FlightAware ADS-B
Sun 03:40:10 PM 40.0680 -104.7420 344° North 290 334 10,000 774 Climbing FlightAware ADS-B
Sun 03:40:40 PM 40.1100 -104.7610 341° North 326 375 10,300 1,500 Climbing FlightAware ADS-B
Sun 03:41:14 PM 40.1600 -104.7840 341° North 343 395 11,600 2,571 Climbing FlightAware ADS-B
Sun 03:41:50 PM 40.2140 -104.8090 341° North 354 407 13,300 2,647 Climbing FlightAware ADS-B
Sun 03:42:22 PM 40.2650 -104.8330 340° North 362 417 14,600 2,417 Climbing FlightAware ADS-B
Sun 03:43:02 PM 40.3290 -104.8630 340° North 372 428 16,200 2,294 Climbing FlightAware ADS-B
Sun 03:43:30 PM 40.3750 -104.8840 341° North 381 438 17,200 2,206 Climbing FlightAware ADS-B
Sun 03:44:10 PM 40.4410 -104.9150 340° North 388 447 18,700 2,313 Climbing FlightAware ADS-B
Sun 03:44:53 PM 40.5150 -104.9500 340° North 394 453 20,400 2,384 Climbing FlightAware ADS-B
Sun 03:45:23 PM 40.5670 -104.9740 341° North 397 457 21,600 2,229 Climbing FlightAware ADS-B
Sun 03:46:03 PM 40.6370 -105.0080 340° North 404 465 23,000 1,875 Climbing FlightAware ADS-B
Sun 03:46:43 PM 40.7070 -105.0410 340° North 410 472 24,100 1,636 Climbing FlightAware ADS-B
Sun 03:47:20 PM 40.7720 -105.0790 336° Northwest 410 472 25,100 1,543 Climbing FlightAware ADS-B
Sun 03:47:53 PM 40.8190 -105.1290 321° Northwest 406 467 25,900 1,462 Climbing FlightAware ADS-B
Sun 03:48:38 PM 40.8850 -105.2030 320° Northwest 412 474 27,000 1,440 Climbing FlightAware ADS-B
Sun 03:49:08 PM 40.9280 -105.2520 319° Northwest 414 476 27,700 1,377 Climbing FlightAware ADS-B
Sun 03:49:39 PM 40.9730 -105.3030 319° Northwest 421 484 28,400 1,433 Climbing FlightAware ADS-B
Sun 03:50:15 PM 41.0270 -105.3640 320° Northwest 423 487 29,300 1,397 Climbing FlightAware ADS-B
Sun 03:50:52 PM 41.0830 -105.4290 319° Northwest 429 494 30,100 1,273 Climbing FlightAware ADS-B
Sun 03:51:21 PM 41.1250 -105.4770 319° Northwest 435 501 30,700 1,130 Climbing FlightAware ADS-B
Sun 03:52:01 PM 41.1880 -105.5490 319° Northwest 447 514 31,400 1,040 Climbing FlightAware ADS-B
Sun 03:52:36 PM 41.2420 -105.6110 319° Northwest 455 524 32,000 474 Climbing FlightAware ADS-B
Sun 03:53:17 PM 41.3070 -105.6850 319° Northwest 454 522 32,000  Level FlightAware ADS-B
Sun 03:54:00 PM 41.3700 -105.7710 314° West 444 511 32,000  Level FlightAware ADS-B
Sun 03:54:43 PM 41.4280 -105.8620 310° West 447 514 32,000 629 Level FlightAware ADS-B
Sun 03:55:45 PM 41.5100 -105.9900 311° West 448 516 33,100 830 Climbing FlightAware ADS-B
Sun 03:56:17 PM 41.5540 -106.0610 310° West 455 524 33,300 533 Climbing FlightAware ADS-B
Sun 03:57:15 PM 41.6330 -106.1850 310° West 466 536 33,900 850 Climbing FlightAware ADS-B
Sun 03:58:17 PM 41.7200 -106.3230 310° West 471 542 35,000 1,080 Climbing FlightAware ADS-B
Sun 03:58:55 PM 41.7740 -106.4070 311° West 469 540 35,700 909 Climbing FlightAware ADS-B
Sun 03:59:23 PM 41.8130 -106.4700 310° West 471 542 36,000 750 Climbing FlightAware ADS-B
Sun 03:59:51 PM 41.8520 -106.5330 310° West 472 543 36,400 507 Climbing FlightAware ADS-B
Sun 04:00:34 PM 41.9050 -106.6180 310° West 471 542 36,600 179 Climbing FlightAware ADS-B
Sun 04:00:58 PM 41.9330 -106.6640 309° West 471 542 36,600  Level FlightAware ADS-B
Sun 04:01:46 PM 41.9910 -106.7550 311° West 471 542 36,600  Level FlightAware ADS-B
Sun 04:02:23 PM 42.0350 -106.8260 310° West 471 542 36,600  Level FlightAware ADS-B
Sun 04:02:58 PM 42.0760 -106.8930 310° West 471 542 36,600  Level FlightAware ADS-B
Sun 04:03:34 PM 42.1190 -106.9620 310° West 471 542 36,600  Level FlightAware ADS-B
Sun 04:04:10 PM 42.1620 -107.0310 310° West 471 542 36,600  Level FlightAware ADS-B
Sun 04:04:58 PM 42.2190 -107.1230 310° West 471 542 36,600  Level FlightAware ADS-B
Sun 04:05:32 PM 42.2600 -107.1880 310° West 471 542 36,600  Level FlightAware ADS-B
Sun 04:06:08 PM 42.3020 -107.2570 309° West 471 542 36,600  Level FlightAware ADS-B
Sun 04:07:08 PM 42.3740 -107.3720 310° West 471 542 36,600  Level FlightAware ADS-B
Sun 04:07:47 PM 42.4200 -107.4470 310° West 471 542 36,600  Level FlightAware ADS-B
Sun 04:08:23 PM 42.4630 -107.5160 310° West 471 542 36,600  Level FlightAware ADS-B
Sun 04:08:47 PM 42.4920 -107.5620 311° West 471 542 36,600  Level FlightAware ADS-B
Sun 04:09:24 PM 42.5360 -107.6340 310° West 471 542 36,600  Level FlightAware ADS-B
Sun 04:09:58 PM 42.5760 -107.6990 310° West 471 542 36,600 988 Level FlightAware ADS-B
Sun 04:10:49 PM 42.7553 -108.0158 310° West 475 547 38,000 750 Climbing Salt Lake Center
Sun 04:11:50 PM 42.8322 -108.1478 309° West 472 543 38,000  Level Salt Lake Center
Sun 04:12:52 PM 42.9233 -108.3022 309° West 470 541 38,000  Level Salt Lake Center
Sun 04:13:54 PM 43.0006 -108.4375 308° West 468 539 38,000  Level Salt Lake Center
Sun 04:14:55 PM 43.0836 -108.5756 310° West 469 540 38,000  Level Salt Lake Center
Sun 04:15:57 PM 43.1642 -108.7169 308° West 470 541 38,000  Level Salt Lake Center
Sun 04:16:59 PM 43.2442 -108.8547 309° West 466 536 38,000  Level Salt Lake Center
Sun 04:18:00 PM 43.3247 -108.9956 308° West 468 539 38,000  Level Salt Lake Center
Sun 04:19:02 PM 43.4053 -109.1333 309° West 463 533 38,000  Level Salt Lake Center
Sun 04:20:04 PM 43.5006 -109.3006 308° West 462 532 38,000  Level Salt Lake Center
Sun 04:21:05 PM 43.5806 -109.4403 308° West 463 533 38,000  Level Salt Lake Center
Sun 04:22:07 PM 43.6600 -109.5836 307° West 464 534 38,000  Level Salt Lake Center
Sun 04:23:09 PM 43.7353 -109.7169 308° West 461 531 38,000  Level Salt Lake Center
Sun 04:24:10 PM 43.8236 -109.8728 308° West 459 528 38,000  Level Salt Lake Center
Sun 04:29:26 PM 44.2370 -110.6220 308° West 464 534 38,000  Level FlightAware ADS-B
Sun 04:30:28 PM 44.3170 -110.7710 307° West 469 540 38,000  Level FlightAware ADS-B
Sun 04:31:27 PM 44.3940 -110.9130 307° West 470 541 38,000  Level FlightAware ADS-B
Sun 04:32:02 PM 44.4400 -110.9970 308° West 468 539 38,000  Level FlightAware ADS-B
Sun 04:32:43 PM 44.4920 -111.0960 306° West 470 541 38,000  Level FlightAware ADS-B
Sun 04:33:18 PM 44.5370 -111.1810 307° West 468 539 38,000  Level FlightAware ADS-B
Sun 04:34:03 PM 44.5970 -111.2920 307° West 469 540 38,000  Level FlightAware ADS-B
Sun 04:34:42 PM 44.6460 -111.3850 307° West 467 537 38,000  Level FlightAware ADS-B
Sun 04:35:19 PM 44.6940 -111.4770 306° West 469 540 38,000  Level FlightAware ADS-B
Sun 04:35:54 PM 44.7390 -111.5620 307° West 470 541 38,000  Level FlightAware ADS-B
Sun 04:36:28 PM 44.7830 -111.6460 306° West 469 540 38,000  Level FlightAware ADS-B
Sun 04:36:58 PM 44.8220 -111.7190 307° West 470 541 38,000  Level FlightAware ADS-B
Sun 04:37:31 PM 44.8640 -111.8000 306° West 468 539 38,000  Level FlightAware ADS-B
Sun 04:38:01 PM 44.9030 -111.8750 306° West 470 541 38,000  Level FlightAware ADS-B
Sun 04:39:05 PM 44.9820 -112.0280 306° West 473 544 38,000  Level FlightAware ADS-B
Sun 04:39:33 PM 45.0200 -112.1010 306° West 473 544 38,000  Level FlightAware ADS-B
Sun 04:40:17 PM 45.0780 -112.2130 306° West 471 542 38,000  Level FlightAware ADS-B
Sun 04:40:32 PM 45.0950 -112.2470 305° West 471 542 38,000  Level FlightAware ADS-B
Sun 04:41:25 PM 45.1620 -112.3780 306° West 472 543 38,000  Level FlightAware ADS-B
Sun 04:42:28 PM 45.2440 -112.5380 306° West 469 540 38,000  Level FlightAware ADS-B
Sun 04:43:33 PM 45.3260 -112.7020 305° West 469 540 38,000  Level FlightAware ADS-B
Sun 04:44:07 PM 45.3680 -112.7880 305° West 471 542 38,000  Level FlightAware ADS-B
Sun 04:44:36 PM 45.4020 -112.8570 305° West 471 542 38,000  Level FlightAware ADS-B
Sun 04:45:13 PM 45.4400 -112.9380 304° West 471 542 38,000  Level FlightAware ADS-B
Sun 04:45:56 PM 45.5030 -113.0630 306° West 466 536 38,000  Level FlightAware ADS-B
Sun 04:46:35 PM 45.5510 -113.1600 305° West 465 535 38,000  Level FlightAware ADS-B
Sun 04:47:22 PM 45.6070 -113.2760 305° West 463 533 38,000  Level FlightAware ADS-B
Sun 04:47:53 PM 45.6470 -113.3580 305° West 468 539 38,000  Level FlightAware ADS-B
Sun 04:48:29 PM 45.6920 -113.4510 305° West 467 537 38,000  Level FlightAware ADS-B
Sun 04:49:14 PM 45.7460 -113.5620 305° West 470 541 38,000  Level FlightAware ADS-B
Sun 04:49:45 PM 45.7860 -113.6450 305° West 469 540 38,000  Level FlightAware ADS-B
Sun 04:50:31 PM 45.8390 -113.7570 304° West 467 537 38,000  Level FlightAware ADS-B
Sun 04:51:10 PM 45.8880 -113.8610 304° West 465 535 38,000  Level FlightAware ADS-B
Sun 04:51:43 PM 45.9260 -113.9390 305° West 468 539 38,000  Level FlightAware ADS-B
Sun 04:52:35 PM 45.9790 -114.0540 304° West 468 539 38,000  Level FlightAware ADS-B
Sun 04:53:11 PM 46.0160 -114.1330 304° West 468 539 38,000  Level FlightAware ADS-B
Sun 04:53:59 PM 46.0660 -114.2380 304° West 468 539 38,000  Level FlightAware ADS-B
Sun 04:54:36 PM 46.1040 -114.3200 304° West 468 539 38,000  Level FlightAware ADS-B
Sun 04:55:02 PM 46.1310 -114.3770 304° West 468 539 38,000  Level FlightAware ADS-B
Sun 04:55:51 PM 46.1810 -114.4850 304° West 468 539 38,000  Level FlightAware ADS-B
Sun 04:57:02 PM 46.2540 -114.6410 304° West 468 539 38,000  Level FlightAware ADS-B
Sun 04:57:38 PM 46.2910 -114.7210 304° West 468 539 38,000  Level FlightAware ADS-B
Sun 04:58:15 PM 46.3290 -114.8030 304° West 468 539 38,000  Level FlightAware ADS-B
Sun 04:59:15 PM 46.3910 -114.9350 304° West 468 539 38,000  Level FlightAware ADS-B
Sun 04:59:52 PM 46.4290 -115.0170 304° West 468 539 38,000  Level FlightAware ADS-B
Sun 05:00:29 PM 46.4670 -115.0990 304° West 468 539 38,000  Level FlightAware ADS-B
Sun 05:01:05 PM 46.5040 -115.1790 304° West 468 539 38,000  Level FlightAware ADS-B
Sun 05:01:42 PM 46.5420 -115.2610 304° West 468 539 38,000  Level FlightAware ADS-B
Sun 05:02:12 PM 46.6208 -115.6164 304° West 469 540 38,000  Level Salt Lake Center
Sun 05:03:05 PM 46.6775 -115.7675 299° West 467 537 38,000 -53 Level Seattle Center
Sun 05:04:06 PM 46.7383 -115.9336 298° West 465 535 37,900 -50 Descending Seattle Center
Sun 05:05:06 PM 46.8006 -116.1008 299° West 467 537 37,900 50 Level Seattle Center
Sun 05:06:07 PM 46.8625 -116.2664 299° West 467 537 38,000  Climbing Seattle Center
Sun 05:07:08 PM 46.9242 -116.4372 298° West 473 544 37,900  Descending Seattle Center
Sun 05:08:09 PM 46.9856 -116.6081 298° West 474 545 38,000 49 Climbing Seattle Center
Sun 05:09:10 PM 47.0475 -116.7806 298° West 477 549 38,000  Level Seattle Center
Sun 05:10:11 PM 47.1103 -116.9519 298° West 476 548 38,000 -49 Level Seattle Center
Sun 05:11:12 PM 47.1728 -117.1267 298° West 479 551 37,900  Descending Seattle Center
Sun 05:16:21 PM 47.5000 -118.0650 298° West 488 562 38,000 18 Climbing FlightAware ADS-B
Sun 05:16:47 PM 47.5270 -118.1440 297° West 486 559 38,000  Level FlightAware ADS-B
Sun 05:17:27 PM 47.5680 -118.2630 297° West 486 559 38,000  Level FlightAware ADS-B
Sun 05:18:14 PM 47.6150 -118.4020 297° West 483 556 38,000  Level FlightAware ADS-B
Sun 05:19:01 PM 47.6620 -118.5430 296° West 481 554 38,000  Level FlightAware ADS-B
Sun 05:19:36 PM 47.6970 -118.6460 297° West 481 554 38,000  Level FlightAware ADS-B
Sun 05:20:37 PM 47.7560 -118.8240 296° West 483 556 38,000  Level FlightAware ADS-B
Sun 05:21:14 PM 47.7930 -118.9350 296° West 482 555 38,000  Level FlightAware ADS-B
Sun 05:22:04 PM 47.8424 -119.0840 296° West 481 554 38,000  Level FlightAware ADS-B
Sun 05:22:35 PM 47.8723 -119.1750 296° West 481 554 38,000  Level FlightAware ADS-B
Sun 05:23:10 PM 47.9069 -119.2810 296° West 481 554 38,000  Level FlightAware ADS-B
Sun 05:23:41 PM 47.9366 -119.3720 296° West 479 551 38,000  Level FlightAware ADS-B
Sun 05:24:14 PM 47.9683 -119.4690 296° West 476 548 38,000  Level FlightAware ADS-B
Sun 05:24:44 PM 47.9974 -119.5590 296° West 475 547 38,000  Level FlightAware ADS-B
Sun 05:25:14 PM 48.0258 -119.6480 296° West 474 545 38,000  Level FlightAware ADS-B
Sun 05:25:44 PM 48.0543 -119.7360 296° West 474 545 38,000  Level FlightAware ADS-B
Sun 05:26:15 PM 48.0832 -119.8260 296° West 475 547 38,000  Level FlightAware ADS-B
Sun 05:26:45 PM 48.1117 -119.9160 295° West 477 549 38,000  Level FlightAware ADS-B
Sun 05:27:15 PM 48.1402 -120.0050 296° West 474 545 38,000  Level FlightAware ADS-B
Sun 05:27:45 PM 48.1684 -120.0940 295° West 475 547 38,000  Level FlightAware ADS-B
Sun 05:27:56 PM 48.1785 -120.1260 295° West 472 543 38,000  Level FlightAware ADS-B
Sun 05:28:15 PM 48.1965 -120.1830 295° West 475 547 38,000  Level FlightAware ADS-B
Sun 05:28:46 PM 48.2247 -120.2730 295° West 474 545 38,000  Level FlightAware ADS-B
Sun 05:28:49 PM 48.2275 -120.2817 295° West 471 542 38,000  Level FlightAware ADS-B
Sun 05:29:16 PM 48.2528 -120.3620 295° West 475 547 38,000  Level FlightAware ADS-B
Sun 05:29:19 PM 48.2562 -120.3732 294° West 472 543 38,000  Level FlightAware ADS-B
Sun 05:29:46 PM 48.2811 -120.4530 295° West 476 548 38,000  Level FlightAware ADS-B
Sun 05:30:01 PM 48.2945 -120.4960 295° West 475 547 38,000  Level FlightAware ADS-B
Sun 05:30:20 PM 48.3121 -120.5530 295° West 476 548 38,000  Level FlightAware ADS-B
Sun 05:30:32 PM 48.3236 -120.5900 295° West 472 543 38,000  Level FlightAware ADS-B
Sun 05:30:51 PM 48.3415 -120.6470 295° West 476 548 38,000  Level FlightAware ADS-B
Sun 05:31:19 PM 48.3675 -120.7311 295° West 473 544 38,000  Level FlightAware ADS-B
Sun 05:31:21 PM 48.3695 -120.7380 294° West 476 548 38,000  Level FlightAware ADS-B
Sun 05:31:49 PM 48.3944 -120.8194 295° West 472 543 38,000  Level FlightAware ADS-B
Sun 05:31:52 PM 48.3972 -120.8280 296° West 472 543 38,000  Level FlightAware ADS-B
Sun 05:32:22 PM 48.4249 -120.9180 295° West 475 547 38,000  Level FlightAware ADS-B
Sun 05:32:23 PM 48.4254 -120.9202 289° West 474 545 38,000  Level FlightAware ADS-B
Sun 05:32:52 PM 48.4526 -121.0090 295° West 470 541 38,000  Level FlightAware ADS-B
Sun 05:32:54 PM 48.4542 -121.0143 295° West 470 541 38,000  Level FlightAware ADS-B
Sun 05:33:24 PM 48.4783 -121.0934 295° West 465 535 38,000  Level FlightAware ADS-B
Sun 05:33:25 PM 48.4818 -121.1050 295° West 465 535 38,000  Level FlightAware ADS-B
Sun 05:33:54 PM 48.5071 -121.1886 295° West 464 534 38,000  Level FlightAware ADS-B
Sun 05:33:56 PM 48.5088 -121.1940 296° West 464 534 38,000  Level FlightAware ADS-B
Sun 05:34:19 PM 48.5299 -121.2642 294° West 462 532 38,000  Level FlightAware ADS-B
Sun 05:34:29 PM 48.5389 -121.2940 294° West 461 531 38,000  Level FlightAware ADS-B
Sun 05:34:39 PM 48.5499 -121.3305 294° West 457 526 38,000  Level FlightAware ADS-B (FAKM / KIM)
Sun 05:35:00 PM 48.5658 -121.3830 295° West 450 518 38,000  Level FlightAware ADS-B
Sun 05:35:12 PM 48.5760 -121.4174 294° West 445 512 38,000  Level FlightAware ADS-B
Sun 05:35:30 PM 48.5916 -121.4690 295° West 449 517 38,000  Level FlightAware ADS-B
Sun 05:35:31 PM 48.5923 -121.4713 295° West 446 513 38,000  Level FlightAware ADS-B
Sun 05:35:41 PM 48.6011 -121.5004 294° West 448 516 38,000  Level FlightAware ADS-B
Sun 05:35:52 PM 48.6100 -121.5303 294° West 451 519 38,000  Level FlightAware ADS-B
Sun 05:36:01 PM 48.6174 -121.5550 295° West 456 525 38,000  Level FlightAware ADS-B
Sun 05:36:25 PM 48.6389 -121.6273 294° West 453 521 38,000  Level FlightAware ADS-B
Sun 05:36:31 PM 48.6435 -121.6430 294° West 455 524 38,000  Level FlightAware ADS-B
Sun 05:36:55 PM 48.6640 -121.7125 294° West 451 519 38,000  Level FlightAware ADS-B
Sun 05:37:01 PM 48.6695 -121.7310 294° West 454 522 38,000  Level FlightAware ADS-B
Sun 05:37:32 PM 48.6955 -121.8190 294° West 451 519 38,000  Level FlightAware ADS-B
Sun 05:38:02 PM 48.7209 -121.9050 294° West 451 519 38,000  Level FlightAware ADS-B
Sun 05:38:23 PM 48.7380 -121.9634 294° West 449 517 38,000  Level FlightAware ADS-B
Sun 05:38:32 PM 48.7467 -121.9930 294° West 450 518 38,000  Level FlightAware ADS-B
Sun 05:38:56 PM 48.7664 -122.0602 294° West 448 516 38,000  Level FlightAware ADS-B
Sun 05:39:02 PM 48.7718 -122.0790 293° West 447 514 38,000  Level FlightAware ADS-B
Sun 05:39:26 PM 48.7920 -122.1482 294° West 446 513 38,000  Level FlightAware ADS-B
Sun 05:39:32 PM 48.7966 -122.1640 294° West 445 512 38,000  Level FlightAware ADS-B
Sun 05:39:56 PM 48.8162 -122.2319 294° West 445 512 38,000  Level FlightAware ADS-B
Sun 05:40:03 PM 48.8220 -122.2520 294° West 445 512 38,000  Level FlightAware ADS-B
Sun 05:40:28 PM 48.8428 -122.3237 294° West 447 514 38,000  Level FlightAware ADS-B
Sun 05:40:33 PM 48.8469 -122.3380 294° West 446 513 38,000  Level FlightAware ADS-B
Sun 05:40:58 PM 48.8677 -122.4098 294° West 449 517 38,000  Level FlightAware ADS-B
Sun 05:41:03 PM 48.8718 -122.4240 294° West 449 517 38,000  Level FlightAware ADS-B
Sun 05:41:30 PM 48.8924 -122.4957 294° West 448 516 38,000  Level FlightAware ADS-B
Sun 05:41:34 PM 48.8970 -122.5120 293° West 447 514 38,000  Level FlightAware ADS-B
Sun 05:42:01 PM 48.9190 -122.5888 294° West 441 507 38,000  Level FlightAware ADS-B
Sun 05:42:16 PM 48.9317 -122.6330 294° West 443 510 38,000  Level FlightAware ADS-B
Sun 05:42:42 PM 48.9522 -122.7050 293° West 436 502 38,000  Level FlightAware ADS-B
Sun 05:42:46 PM 48.9559 -122.7180 294° West 439 505 38,000  Level FlightAware ADS-B
Sun 05:42:54 PM 48.9648 -122.7496 293° West 435 501 38,000  Level FlightAware ADS-B (FAKM / KIM)
Sun 05:43:17 PM 48.9803 -122.8040 293° West 436 502 38,000  Level FlightAware ADS-B
Sun 05:43:26 PM 48.9874 -122.8295 293° West 435 501 38,000  Level FlightAware ADS-B
Sun 05:43:35 PM 48.9972 -122.8642 293° West 431 496 38,000  Level FlightAware ADS-B (FAKM / KIM)
Sun 05:43:47 PM 49.0014 -122.8788 293° West 434 499 38,000  Level FlightAware ADS-B
Sun 05:44:07 PM 49.0231 -122.9556 293° West 432 497 38,000  Level FlightAware ADS-B (FAKM / KIM)
Sun 05:44:17 PM 49.0281 -122.9740 293° West 434 499 38,000  Level FlightAware ADS-B
Sun 05:44:28 PM 49.0388 -123.0123 293° West 430 495 38,000  Level FlightAware ADS-B (FAKM / KIM)
Sun 05:44:38 PM 49.0468 -123.0407 293° West 430 495 38,000  Level FlightAware ADS-B (FAKM / KIM)
Sun 05:44:48 PM 49.0518 -123.0590 293° West 433 498 38,000  Level FlightAware ADS-B
Sun 05:45:18 PM 49.0756 -123.1430 293° West 437 503 38,000  Level FlightAware ADS-B
Sun 05:45:48 PM 49.1003 -123.2290 294° West 436 502 38,000  Level FlightAware ADS-B
Sun 05:46:19 PM 49.1251 -123.3140 294° West 432 497 38,000  Level FlightAware ADS-B
Sun 05:46:20 PM 49.1263 -123.3182 293° West 432 497 38,000  Level FlightAware ADS-B
Sun 05:46:49 PM 49.1495 -123.3980 294° West 432 497 38,000  Level FlightAware ADS-B
Sun 05:46:51 PM 49.1511 -123.4039 292° West 429 494 38,000  Level FlightAware ADS-B
Sun 05:47:25 PM 49.1778 -123.4967 294° West 430 495 38,000  Level FlightAware ADS-B
Sun 05:47:35 PM 49.1861 -123.5250 294° West 429 494 38,000  Level FlightAware ADS-B
Sun 05:47:44 PM 49.1964 -123.5614 293° West 425 489 38,000  Level FlightAware ADS-B (FAKM / KIM)
Sun 05:47:54 PM 49.2043 -123.5890 294° West 424 488 38,000  Level FlightAware ADS-B (FAKM / KIM)
Sun 05:48:05 PM 49.2100 -123.6090 294° West 426 490 38,000  Level FlightAware ADS-B
Sun 05:48:25 PM 49.2252 -123.6620 294° West 423 487 38,000  Level FlightAware ADS-B
Sun 05:48:36 PM 49.2337 -123.6920 293° West 422 486 38,000  Level FlightAware ADS-B
Sun 05:48:58 PM 49.2497 -123.7487 293° West 418 481 38,000  Level FlightAware ADS-B
Sun 05:49:07 PM 49.2575 -123.7760 294° West 417 480 38,000  Level FlightAware ADS-B
Sun 05:49:28 PM 49.2687 -123.8155 294° West 413 475 38,000  Level FlightAware ADS-B
Sun 05:49:37 PM 49.2803 -123.8570 293° West 412 474 38,000  Level FlightAware ADS-B
Sun 05:50:00 PM 49.3008 -123.9289 294° West 410 472 38,000  Level FlightAware ADS-B (FAKM / KIM)
Sun 05:50:07 PM 49.3035 -123.9390 292° West 410 472 38,000  Level FlightAware ADS-B
Sun 05:50:30 PM 49.3178 -123.9892 294° West 413 475 38,000  Level FlightAware ADS-B
Sun 05:50:38 PM 49.3263 -124.0190 294° West 414 476 38,000  Level FlightAware ADS-B
Sun 05:51:00 PM 49.3430 -124.0785 293° West 416 479 38,000  Level FlightAware ADS-B
Sun 05:51:08 PM 49.3495 -124.1020 293° West 417 480 38,000  Level FlightAware ADS-B
Sun 05:51:30 PM 49.3569 -124.1283 293° West 416 479 38,000  Level FlightAware ADS-B
Sun 05:52:00 PM 49.3867 -124.2353 293° West 420 483 38,000  Level FlightAware ADS-B
Sun 05:52:30 PM 49.4116 -124.3248 293° West 424 488 38,000  Level FlightAware ADS-B
Sun 05:53:02 PM 49.4304 -124.3932 293° West 424 488 38,000  Level FlightAware ADS-B
Sun 05:53:26 PM 49.4544 -124.4800 293° West 423 487 38,000  Level FlightAware ADS-B
Sun 05:53:32 PM 49.4589 -124.4965 293° West 424 488 38,000  Level FlightAware ADS-B
Sun 05:54:00 PM 49.4801 -124.5740 293° West 423 487 38,000  Level FlightAware ADS-B
Sun 05:54:14 PM 49.4907 -124.6119 293° West 424 488 38,000  Level FlightAware ADS-B
Sun 05:54:31 PM 49.5039 -124.6600 293° West 423 487 38,000  Level FlightAware ADS-B
Sun 05:54:44 PM 49.5132 -124.6945 293° West 428 493 38,000  Level FlightAware ADS-B
Sun 05:55:14 PM 49.5365 -124.7800 293° West 425 489 38,000  Level FlightAware ADS-B
Sun 05:55:44 PM 49.5584 -124.8604 293° West 424 488 38,000  Level FlightAware ADS-B
Sun 05:56:15 PM 49.5821 -124.9479 293° West 426 490 38,000  Level FlightAware ADS-B
Sun 05:56:54 PM 49.6057 -125.0355 293° West 423 487 38,000  Level FlightAware ADS-B
Sun 05:57:24 PM 49.6341 -125.1416 293° West 424 488 38,000  Level FlightAware ADS-B
Sun 05:57:54 PM 49.6566 -125.2253 293° West 430 495 38,000  Level FlightAware ADS-B
Sun 05:58:24 PM 49.6792 -125.3100 292° West 434 499 38,000  Level FlightAware ADS-B
Sun 05:58:54 PM 49.7001 -125.3892 292° West 436 502 38,000  Level FlightAware ADS-B
Sun 05:59:24 PM 49.7249 -125.4830 292° West 436 502 38,000  Level FlightAware ADS-B
Sun 05:59:55 PM 49.7451 -125.5601 292° West 435 501 38,000  Level FlightAware ADS-B
Sun 06:00:29 PM 49.7764 -125.6789 292° West 436 502 38,000  Level FlightAware ADS-B (FAKM / KIM)
Sun 06:01:12 PM 49.8087 -125.8030 292° West 433 498 38,000  Level FlightAware ADS-B (FAKM / KIM)
Sun 06:01:43 PM 49.8187 -125.8414 292° West 430 495 38,000  Level FlightAware ADS-B (FAKM / KIM)
Sun 06:03:00 PM 49.8840 -126.0950 292° West 427 491 38,000  Level FlightAware ADS-B
Sun 06:03:39 PM 49.9120 -126.2040 292° West 417 480 38,000  Level FlightAware ADS-B
Sun 06:04:45 PM 49.9590 -126.3890 292° West 417 480 38,000  Level FlightAware ADS-B
Sun 06:05:33 PM 49.9930 -126.5230 292° West 418 481 38,000  Level FlightAware ADS-B
Sun 06:06:08 PM 50.0170 -126.6170 292° West 419 482 38,000  Level FlightAware ADS-B
Sun 06:06:32 PM 50.0203 -126.6309 290° West 421 484 38,000  Level FlightAware ADS-B
Sun 06:07:18 PM 50.0680 -126.8200 292° West 422 486 38,000  Level FlightAware ADS-B
Sun 06:07:58 PM 50.0960 -126.9330 291° West 424 488 38,000  Level FlightAware ADS-B
Sun 06:08:42 PM 50.1270 -127.0600 291° West 424 488 38,000  Level FlightAware ADS-B
Sun 06:09:12 PM 50.1470 -127.1420 291° West 424 488 38,000  Level FlightAware ADS-B
Sun 06:10:08 PM 50.1840 -127.2910 291° West 428 493 38,000  Level FlightAware ADS-B
Sun 06:10:53 PM 50.2170 -127.4310 290° West 430 495 38,000  Level FlightAware ADS-B
Sun 06:12:10 PM 50.2620 -127.6510 288° West 442 509 38,000  Level FlightAware ADS-B
Sun 06:12:54 PM 50.2830 -127.8000 282° West 437 503 38,000  Level FlightAware ADS-B
Sun 06:13:40 PM 50.3000 -127.9270 282° West 438 504 38,000  Level FlightAware ADS-B
Sun 06:14:29 PM 50.3190 -128.0560 283° West 438 504 38,000  Level FlightAware ADS-B
Sun 06:14:43 PM 50.3280 -128.1310 281° West 438 504 38,000  Level FlightAware ADS-B
Sun 06:15:32 PM 50.3470 -128.2590 283° West 438 504 38,000  Level FlightAware ADS-B
Sun 06:16:28 PM 50.3720 -128.4550 281° West 439 505 38,000  Level FlightAware ADS-B
Sun 06:17:32 PM 50.3950 -128.6240 282° West 439 505 38,000  Level FlightAware ADS-B
Sun 06:18:33 PM 50.4170 -128.7860 282° West 439 505 38,000  Level FlightAware ADS-B
Sun 06:18:45 PM 50.4210 -128.8180 281° West 439 505 38,000  Level FlightAware ADS-B
Sun 06:19:45 PM 50.4420 -128.9770 282° West 439 505 38,000  Level FlightAware ADS-B
Sun 06:20:59 PM 50.4690 -129.1730 282° West 439 505 38,000  Level FlightAware ADS-B
Sun 06:21:33 PM 50.4810 -129.2630 282° West 439 505 38,000  Level FlightAware ADS-B
Sun 06:22:11 PM 50.4950 -129.3640 282° West 439 505 38,000  Level FlightAware ADS-B
Sun 06:22:59 PM 50.5120 -129.4920 282° West 439 505 38,000  Level FlightAware ADS-B
Sun 06:23:35 PM 50.5250 -129.5870 282° West 439 505 38,000  Level FlightAware ADS-B
Sun 06:24:23 PM 50.5420 -129.7150 282° West 439 505 38,000  Level FlightAware ADS-B
Sun 06:24:59 PM 50.5550 -129.8110 282° West 439 505 38,000  Level FlightAware ADS-B
Sun 06:25:35 PM 50.5680 -129.9060 282° West 439 505 38,000  Level FlightAware ADS-B
Sun 06:26:11 PM 50.5810 -130.0020 282° West 439 505 38,000  Level FlightAware ADS-B
Sun 06:26:23 PM 50.5850 -130.0340 281° West 439 505 38,000  Level FlightAware ADS-B
Sun 06:27:32 PM 50.6167 -130.5667 281° West 440 506 38,000  Level Vancouver Center
Sun 06:28:32 PM 50.6333 -130.7333 279° West 440 506 38,000  Level Vancouver Center
Sun 06:29:32 PM 50.6500 -130.9500 277° West 450 518 38,000  Level Vancouver Center
Sun 06:30:32 PM 50.6833 -131.1333 286° West 450 518 38,000  Level Vancouver Center
Sun 06:31:32 PM 50.7000 -131.3167 278° West 440 506 38,000  Level Vancouver Center
Sun 06:32:32 PM 50.7167 -131.5167 278° West 440 506 38,000  Level Vancouver Center
Sun 06:33:32 PM 50.7500 -131.7000 286° West 450 518 38,000  Level Vancouver Center
Sun 06:34:32 PM 50.7667 -131.9167 277° West 450 518 38,000  Level Vancouver Center
Sun 06:35:32 PM 50.7833 -132.1000 278° West 450 518 38,000  Level Vancouver Center
Sun 06:36:32 PM 50.8000 -132.2833 278° West 450 518 38,000  Level Vancouver Center
Sun 06:37:32 PM 50.8167 -132.4833 278° West 450 518 38,000  Level Vancouver Center
Sun 06:38:32 PM 50.8167 -132.6667 270° West 440 506 38,000  Level Vancouver Center
Sun 06:39:32 PM 50.8500 -132.8500 286° West 440 506 38,000 100 Level Vancouver Center
Sun 06:40:32 PM 50.8667 -133.0500 278° West 450 518 38,200 500 Climbing Vancouver Center
Sun 06:41:32 PM 50.8833 -133.2667 277° West 440 506 39,000 400 Climbing Vancouver Center
Sun 06:42:32 PM 50.9000 -133.4500 278° West 450 518 39,000  Level Vancouver Center
Sun 06:43:32 PM 50.9167 -133.6500 278° West 440 506 39,000  Level Vancouver Center
Sun 06:44:32 PM 50.9333 -133.8333 278° West 440 506 39,000  Level Vancouver Center
Sun 06:45:32 PM 50.9500 -134.0167 278° West 450 518 39,000  Level Vancouver Center
Sun 06:46:32 PM 50.9667 -134.2167 278° West 450 518 39,000  Level Vancouver Center
Sun 06:47:32 PM 50.9833 -134.4000 278° West 450 518 39,000  Level Vancouver Center
Sun 06:48:32 PM 51.0167 -134.6000 285° West 440 506 39,000  Level Vancouver Center
Sun 06:49:32 PM 51.0500 -134.7667 288° West 440 506 39,000  Level Vancouver Center
Sun 06:50:32 PM 51.0833 -134.9667 285° West 440 506 39,000  Level Vancouver Center
Sun 06:51:32 PM 51.1333 -135.1667 292° West 440 506 39,000  Level Vancouver Center
Sun 06:51:56 PM 51.1500 -135.1667 288° West 441 507 39,000  Level Oakland Oceanic (ODAPS)
Sun 06:52:32 PM 51.1667 -135.3333 288° West 440 506 39,000  Level Vancouver Center
Sun 06:53:32 PM 51.2000 -135.5333 285° West 450 518 39,000  Level Vancouver Center
Sun 06:54:32 PM 51.2333 -135.7000 288° West 430 495 39,000  Level Vancouver Center
Sun 06:55:26 PM 51.2833 -135.8167 287° West 441 507 39,000  Level Oakland Oceanic (ODAPS)
Sun 06:56:32 PM 51.3000 -136.1000 287° West 450 518 39,000  Level Vancouver Center
Sun 06:57:32 PM 51.3333 -136.2667 288° West 440 506 39,000  Level Vancouver Center
Sun 06:58:32 PM 51.3667 -136.4667 285° West 430 495 39,000  Level Vancouver Center
Sun 06:59:32 PM 51.4167 -136.6333 296° West 450 518 39,000  Level Vancouver Center
Sun 07:00:32 PM 51.4333 -136.8333 278° West 440 506 39,000  Level Vancouver Center
Sun 07:01:32 PM 51.4667 -137.0000 288° West 450 518 39,000  Level Vancouver Center
Sun 07:02:32 PM 51.5167 -137.2167 290° West 440 506 39,000  Level Vancouver Center
Sun 07:03:32 PM 51.5500 -137.4167 285° West 440 506 39,000  Level Vancouver Center
Sun 07:04:32 PM 51.5667 -137.6000 278° West 440 506 39,000  Level Vancouver Center
Sun 07:07:00 PM 51.6573 -137.9086 286° West  Level FlightAware Approximate
Sun 07:09:25 PM 51.7500 -138.4667 285° West 453 521 39,000  Level Oakland Oceanic (ODAPS)
Sun 07:16:00 PM 51.9698 -139.8074 284° West 453 521 39,000  Level FlightAware Transoceanic
Sun 07:17:00 PM 52.0000 -140.0000 292° West 453 521 39,000  Level FlightAware Transoceanic
Sun 07:17:23 PM 52.0000 -140.0000 292° West 451 519 39,000  Level Oakland Oceanic (ODAPS)
Sun 07:18:00 PM 52.0490 -140.1945 292° West 453 521 39,000  Level FlightAware Transoceanic
Sun 07:19:00 PM 52.0976 -140.3893 292° West 453 521 39,000  Level FlightAware Transoceanic
Sun 07:19:25 PM 52.1000 -140.3833 292° West 456 525 39,000  Level Oakland Oceanic (ODAPS)
Sun 07:20:00 PM 52.1460 -140.5847 292° West 453 521 39,000  Level FlightAware Transoceanic
Sun 07:21:00 PM 52.1940 -140.7804 292° West 453 521 39,000  Level FlightAware Transoceanic
Sun 07:22:00 PM 52.2417 -140.9765 292° West 453 521 39,000  Level FlightAware Transoceanic
Sun 07:23:00 PM 52.2779 -141.1268 291° West 451 519 39,000  Level FlightAware Transoceanic
Sun 07:23:22 PM 52.2667 -141.1167 292° West 456 525 39,000  Level Oakland Oceanic (ODAPS)
Sun 07:24:00 PM 52.3232 -141.3160 291° West 451 519 39,000  Level FlightAware Transoceanic
Sun 07:25:00 PM 52.3791 -141.5376 291° West 456 525 39,000  Level FlightAware Transoceanic
Sun 07:26:00 PM 52.4245 -141.7314 291° West 456 525 39,000  Level FlightAware Transoceanic
Sun 07:27:00 PM 52.4696 -141.9256 291° West 456 525 39,000  Level FlightAware Transoceanic
Sun 07:28:00 PM 52.5143 -142.1201 291° West 456 525 39,000  Level FlightAware Transoceanic
Sun 07:29:00 PM 52.5413 -142.2846 291° West 456 525 39,000  Level FlightAware Transoceanic
Sun 07:30:00 PM 52.5859 -142.4807 290° West 456 525 39,000  Level FlightAware Transoceanic
Sun 07:31:00 PM 52.6302 -142.6771 290° West 456 525 39,000  Level FlightAware Transoceanic
Sun 07:32:00 PM 52.6742 -142.8740 290° West 456 525 39,000  Level FlightAware Transoceanic
Sun 07:33:00 PM 52.7179 -143.0712 290° West 456 525 39,000  Level FlightAware Transoceanic
Sun 07:34:00 PM 52.7612 -143.2689 290° West 456 525 39,000  Level FlightAware Transoceanic
Sun 07:35:00 PM 52.8042 -143.4669 290° West 456 525 39,000  Level FlightAware Transoceanic
Sun 07:36:00 PM 52.8469 -143.6654 290° West 456 525 39,000  Level FlightAware Transoceanic
Sun 07:37:00 PM 52.8893 -143.8642 289° West 456 525 39,000  Level FlightAware Transoceanic
Sun 07:37:10 PM 52.8833 -143.8167 289° West 461 531 39,000  Level Oakland Oceanic (ODAPS)
Sun 07:38:00 PM 52.9313 -144.0634 289° West 456 525 39,000  Level FlightAware Transoceanic
Sun 07:39:00 PM 52.9730 -144.2630 289° West 456 525 39,000  Level FlightAware Transoceanic
Sun 07:40:00 PM 53.0143 -144.4630 289° West 456 525 39,000  Level FlightAware Transoceanic
Sun 07:41:00 PM 53.0553 -144.6633 289° West 456 525 39,000  Level FlightAware Transoceanic
Sun 07:42:00 PM 53.0960 -144.8641 289° West 456 525 39,000  Level FlightAware Transoceanic
Sun 07:43:00 PM 53.1320 -145.0268 288° West 461 531 39,000  Level FlightAware Transoceanic
Sun 07:44:00 PM 53.1722 -145.2299 288° West 461 531 39,000  Level FlightAware Transoceanic
Sun 07:45:00 PM 53.2121 -145.4333 288° West 461 531 39,000  Level FlightAware Transoceanic
Sun 07:46:00 PM 53.2517 -145.6371 288° West 461 531 39,000  Level FlightAware Transoceanic
Sun 07:47:00 PM 53.2909 -145.8412 288° West 461 531 39,000  Level FlightAware Transoceanic
Sun 07:48:00 PM 53.3297 -146.0458 288° West 461 531 39,000  Level FlightAware Transoceanic
Sun 07:49:00 PM 53.3682 -146.2507 287° West 461 531 39,000  Level FlightAware Transoceanic
Sun 07:50:00 PM 53.4063 -146.4560 287° West 461 531 39,000  Level FlightAware Transoceanic
Sun 07:51:00 PM 53.4441 -146.6617 287° West 461 531 39,000  Level FlightAware Transoceanic
Sun 07:51:00 PM 53.4333 -146.6167 287° West 466 536 39,000  Level Oakland Oceanic (ODAPS)
Sun 07:52:00 PM 53.4816 -146.8677 287° West 461 531 39,000  Level FlightAware Transoceanic
Sun 07:53:00 PM 53.5187 -147.0740 287° West 461 531 39,000  Level FlightAware Transoceanic
Sun 07:54:00 PM 53.5554 -147.2808 287° West 461 531 39,000  Level FlightAware Transoceanic
Sun 07:55:00 PM 53.5918 -147.4879 286° West 461 531 39,000  Level FlightAware Transoceanic
Sun 07:56:00 PM 53.6278 -147.6953 286° West 461 531 39,000  Level FlightAware Transoceanic
Sun 07:57:00 PM 53.6570 -147.8747 286° West 466 536 39,000  Level FlightAware Transoceanic
Sun 07:58:00 PM 53.6930 -148.0856 286° West 466 536 39,000  Level FlightAware Transoceanic
Sun 07:59:00 PM 53.7286 -148.2969 286° West 466 536 39,000  Level FlightAware Transoceanic
Sun 08:00:00 PM 53.7638 -148.5086 286° West 466 536 39,000  Level FlightAware Transoceanic
Sun 08:01:00 PM 53.7987 -148.7206 285° West 466 536 39,000  Level FlightAware Transoceanic
Sun 08:02:00 PM 53.8332 -148.9330 285° West 466 536 39,000  Level FlightAware Transoceanic
Sun 08:03:00 PM 53.8673 -149.1457 285° West 466 536 39,000  Level FlightAware Transoceanic
Sun 08:04:00 PM 53.9011 -149.3588 285° West 466 536 39,000 531 Level FlightAware Transoceanic
Sun 08:04:53 PM 53.9333 -149.5167 283° West 470 541 40,000  Climbing Oakland Oceanic (ODAPS)
Sun 08:05:00 PM 53.9344 -149.5722 285° West 466 536 39,000 -896 Descending FlightAware Transoceanic
Sun 08:06:00 PM 53.9674 -149.7859 285° West 466 536 39,000  Level FlightAware Transoceanic
Sun 08:07:00 PM 54.0000 -150.0000 293° West 466 536 39,000 800 Level FlightAware Transoceanic
Sun 08:07:15 PM 54.0000 -150.0000 293° West 481 554 40,000  Climbing Oakland Oceanic (ODAPS)
Sun 08:08:00 PM 54.0543 -150.2158 293° West 466 536 39,000 -571 Descending FlightAware Transoceanic
Sun 08:09:00 PM 54.1082 -150.4322 293° West 466 536 39,000  Level FlightAware Transoceanic
Sun 08:10:00 PM 54.1618 -150.6491 293° West 466 536 39,000 500 Level FlightAware Transoceanic
Sun 08:11:00 PM 54.2149 -150.8666 293° West 470 541 40,000 500 Climbing FlightAware Transoceanic
Sun 08:12:00 PM 54.2676 -151.0846 292° West 470 541 40,000  Level FlightAware Transoceanic
Sun 08:13:00 PM 54.3130 -151.2741 292° West 481 554 40,000  Level FlightAware Transoceanic
Sun 08:14:00 PM 54.3639 -151.4883 292° West 481 554 40,000  Level FlightAware Transoceanic
Sun 08:15:00 PM 54.4143 -151.7030 292° West 481 554 40,000  Level FlightAware Transoceanic
Sun 08:16:00 PM 54.4644 -151.9183 292° West 481 554 40,000  Level FlightAware Transoceanic
Sun 08:17:00 PM 54.5141 -152.1341 292° West 481 554 40,000  Level FlightAware Transoceanic
Sun 08:18:00 PM 54.5635 -152.3504 291° West 481 554 40,000  Level FlightAware Transoceanic
Sun 08:18:45 PM 54.5833 -152.4500 291° West 481 554 40,000  Level Oakland Oceanic (ODAPS)
Sun 08:19:00 PM 54.6124 -152.5672 291° West 481 554 40,000  Level FlightAware Transoceanic
Sun 08:20:00 PM 54.6610 -152.7846 291° West 481 554 40,000  Level FlightAware Transoceanic
Sun 08:21:00 PM 54.7091 -153.0025 291° West 481 554 40,000  Level FlightAware Transoceanic
Sun 08:22:00 PM 54.7569 -153.2209 291° West 481 554 40,000  Level FlightAware Transoceanic
Sun 08:23:00 PM 54.8043 -153.4398 290° West 481 554 40,000  Level FlightAware Transoceanic
Sun 08:24:00 PM 54.8667 -153.7423 290° West 481 554 40,000  Level FlightAware Transoceanic
Sun 08:25:00 PM 54.9126 -153.9594 290° West 481 554 40,000  Level FlightAware Transoceanic
Sun 08:26:00 PM 54.9581 -154.1771 290° West 481 554 40,000  Level FlightAware Transoceanic
Sun 08:27:00 PM 55.0032 -154.3952 290° West 481 554 40,000  Level FlightAware Transoceanic
Sun 08:28:00 PM 55.0479 -154.6138 290° West 481 554 40,000  Level FlightAware Transoceanic
Sun 08:29:00 PM 55.0923 -154.8329 289° West 481 554 40,000  Level FlightAware Transoceanic
Sun 08:30:00 PM 55.1362 -155.0525 289° West 481 554 40,000  Level FlightAware Transoceanic
Sun 08:31:00 PM 55.1797 -155.2725 289° West 481 554 40,000  Level FlightAware Transoceanic
Sun 08:32:00 PM 55.2229 -155.4931 289° West 481 554 40,000  Level FlightAware Transoceanic
Sun 08:32:26 PM 55.2167 -155.4333 288° West 470 541 40,000  Level Anchorage Center
Sun 08:32:59 PM 55.2500 -155.5667 294° West 470 541 40,000  Level Anchorage Center
Sun 08:33:00 PM 55.2656 -155.7141 289° West 481 554 40,000  Level FlightAware Transoceanic
Sun 08:34:00 PM 55.3079 -155.9356 288° West 481 554 40,000  Level FlightAware Transoceanic
Sun 08:34:00 PM 55.3000 -155.7833 292° West 470 541 40,000  Level Anchorage Center
Sun 08:34:59 PM 55.3333 -156.0000 285° West 470 541 40,000  Level Anchorage Center
Sun 08:35:00 PM 55.3499 -156.1575 288° West 481 554 40,000  Level FlightAware Transoceanic
Sun 08:35:59 PM 55.3833 -156.2333 291° West 480 552 40,000  Level Anchorage Center
Sun 08:36:00 PM 55.3914 -156.3799 288° West 481 554 40,000  Level FlightAware Transoceanic
Sun 08:37:00 PM 55.4167 -156.4500 285° West 470 541 40,000  Level Anchorage Center
Sun 08:37:00 PM 55.4325 -156.6028 288° West 481 554 40,000  Level FlightAware Transoceanic
Sun 08:38:00 PM 55.4667 -156.6833 291° West 480 552 40,000  Level Anchorage Center
Sun 08:39:00 PM 55.5000 -156.9000 285° West 460 529 40,000  Level Anchorage Center
Sun 08:40:00 PM 55.5333 -157.1167 285° West 470 541 40,000  Level Anchorage Center
Sun 08:41:00 PM 55.5833 -157.3500 291° West 470 541 40,000  Level Anchorage Center
Sun 08:42:00 PM 55.6167 -157.5667 285° West 470 541 40,000  Level Anchorage Center
Sun 08:43:00 PM 55.6500 -157.7500 288° West 470 541 40,000  Level Anchorage Center
Sun 08:44:00 PM 55.6833 -157.9833 284° West 480 552 40,000  Level Anchorage Center
Sun 08:45:00 PM 55.7333 -158.2167 291° West 470 541 40,000  Level Anchorage Center
Sun 08:46:01 PM 55.7667 -158.4500 284° West 480 552 40,000  Level Anchorage Center
Sun 08:47:00 PM 55.8000 -158.6833 284° West 490 564 40,000  Level Anchorage Center
Sun 08:48:01 PM 55.8333 -158.9167 284° West 480 552 40,000  Level Anchorage Center
Sun 08:49:01 PM 55.8833 -159.1500 291° West 490 564 40,000  Level Anchorage Center
Sun 08:50:01 PM 55.9167 -159.3833 284° West 490 564 40,000  Level Anchorage Center
Sun 08:51:01 PM 55.9500 -159.6333 283° West 500 575 40,000  Level Anchorage Center
Sun 08:52:01 PM 56.0000 -159.8833 290° West 500 575 40,000  Level Anchorage Center
Sun 08:53:01 PM 56.0333 -160.1167 284° West 500 575 40,000  Level Anchorage Center
Sun 08:54:01 PM 56.0667 -160.3667 284° West 500 575 40,000  Level Anchorage Center
Sun 08:55:02 PM 56.1000 -160.6000 284° West 500 575 40,000  Level Anchorage Center
Sun 08:56:02 PM 56.1333 -160.8667 283° West 510 587 40,000  Level Anchorage Center
Sun 08:57:02 PM 56.1667 -161.1167 284° West 510 587 40,000  Level Anchorage Center
Sun 08:58:02 PM 56.2000 -161.3667 284° West 510 587 40,000  Level Anchorage Center
Sun 08:59:02 PM 56.2333 -161.6167 284° West 510 587 40,000  Level Anchorage Center
Sun 09:00:02 PM 56.2667 -161.8667 284° West 510 587 40,000  Level Anchorage Center
Sun 09:01:02 PM 56.3000 -162.1667 281° West 510 587 40,000  Level Anchorage Center
Sun 09:02:02 PM 56.3333 -162.4167 284° West 500 575 40,000  Level Anchorage Center
Sun 09:03:02 PM 56.3500 -162.6500 277° West 490 564 40,000  Level Anchorage Center
Sun 09:04:03 PM 56.3833 -162.9000 284° West 490 564 40,000  Level Anchorage Center
Sun 09:05:03 PM 56.4167 -163.1333 285° West 480 552 40,000  Level Anchorage Center
Sun 09:06:03 PM 56.4500 -163.3833 284° West 490 564 40,000  Level Anchorage Center
Sun 09:07:03 PM 56.4667 -163.6333 277° West 490 564 40,000  Level Anchorage Center
Sun 09:08:03 PM 56.5000 -163.8667 285° West 490 564 40,000  Level Anchorage Center
Sun 09:09:03 PM 56.5167 -164.1167 277° West 500 575 40,000  Level Anchorage Center
Sun 09:10:29 PM 56.5500 -164.4667 280° West 490 564 40,000  Level Anchorage Center
Sun 09:11:29 PM 56.5833 -164.7000 285° West 490 564 40,000  Level Anchorage Center
Sun 09:12:29 PM 56.6000 -164.9500 277° West 490 564 40,000  Level Anchorage Center
Sun 09:13:29 PM 56.6333 -165.1833 285° West 480 552 40,000  Level Anchorage Center
Sun 09:14:29 PM 56.6500 -165.4333 277° West 480 552 40,000  Level Anchorage Center
Sun 09:15:29 PM 56.6667 -165.6833 277° West 480 552 40,000  Level Anchorage Center
Sun 09:16:29 PM 56.7000 -165.8833 287° West 470 541 40,000  Level Anchorage Center
Sun 09:17:29 PM 56.7167 -166.1167 278° West 470 541 40,000  Level Anchorage Center
Sun 09:18:29 PM 56.7333 -166.3667 277° West 470 541 40,000  Level Anchorage Center
Sun 09:19:29 PM 56.7500 -166.6000 278° West 470 541 40,000  Level Anchorage Center
Sun 09:20:29 PM 56.7667 -166.8500 277° West 480 552 40,000  Level Anchorage Center
Sun 09:21:30 PM 56.8000 -167.0833 285° West 480 552 40,000  Level Anchorage Center
Sun 09:22:30 PM 56.8167 -167.3333 277° West 490 564 40,000  Level Anchorage Center
Sun 09:23:29 PM 56.8333 -167.5833 277° West 490 564 40,000  Level Anchorage Center
Sun 09:24:30 PM 56.8500 -167.8333 277° West 500 575 40,000  Level Anchorage Center
Sun 09:25:30 PM 56.8667 -168.0833 277° West 490 564 40,000  Level Anchorage Center
Sun 09:26:30 PM 56.8833 -168.3500 277° West 490 564 40,000  Level Anchorage Center
Sun 09:27:30 PM 56.9000 -168.5833 278° West 490 564 40,000  Level Anchorage Center
Sun 09:28:30 PM 56.9167 -168.8333 277° West 480 552 40,000  Level Anchorage Center
Sun 09:29:30 PM 56.9333 -169.0833 277° West 480 552 40,000  Level Anchorage Center
Sun 09:30:30 PM 56.9500 -169.3167 278° West 480 552 40,000  Level Anchorage Center
Sun 09:31:30 PM 56.9667 -169.5667 277° West 470 541 40,000  Level Anchorage Center
Sun 09:32:30 PM 56.9833 -169.8167 277° West 480 552 40,000  Level Anchorage Center
Sun 09:33:31 PM 56.9833 -170.0667 270° West 480 552 40,000  Level Anchorage Center
Sun 09:34:31 PM 56.9833 -170.3000 270° West 460 529 40,000  Level Anchorage Center
Sun 09:35:30 PM 56.9833 -170.5500 270° West 470 541 40,000  Level Anchorage Center
Sun 09:36:30 PM 56.9667 -170.8000 263° West 470 541 40,000  Level Anchorage Center
Sun 09:37:31 PM 56.9667 -171.0500 270° West 470 541 40,000  Level Anchorage Center
Sun 09:38:31 PM 56.9500 -171.2833 263° West 470 541 40,000  Level Anchorage Center
Sun 09:39:31 PM 56.9333 -171.5333 263° West 470 541 40,000  Level Anchorage Center
Sun 09:40:31 PM 56.9333 -171.7667 270° West 470 541 40,000  Level Anchorage Center
Sun 09:41:31 PM 56.9167 -172.0000 263° West 460 529 40,000  Level Anchorage Center
Sun 09:42:31 PM 56.9167 -172.2500 270° West 470 541 40,000  Level Anchorage Center
Sun 09:43:31 PM 56.9000 -172.4833 263° West 470 541 40,000  Level Anchorage Center
Sun 09:44:31 PM 56.8833 -172.7167 263° West 470 541 40,000  Level Anchorage Center
Sun 09:45:31 PM 56.8833 -172.9667 270° West 470 541 40,000  Level Anchorage Center
Sun 09:46:31 PM 56.8667 -173.2000 263° West 460 529 40,000  Level Anchorage Center
Sun 09:47:31 PM 56.8500 -173.4333 263° West 460 529 40,000  Level Anchorage Center
Sun 09:48:31 PM 56.8333 -173.6667 263° West 460 529 40,000  Level Anchorage Center
Sun 09:49:31 PM 56.8333 -173.9000 270° West 460 529 40,000  Level Anchorage Center
Sun 09:50:31 PM 56.8000 -174.1500 256° West 470 541 40,000  Level Anchorage Center
Sun 09:51:32 PM 56.8000 -174.3833 270° West 460 529 40,000  Level Anchorage Center
Sun 09:52:32 PM 56.7833 -174.6167 263° West 470 541 40,000  Level Anchorage Center
Sun 09:53:32 PM 56.7667 -174.8500 263° West 460 529 40,000  Level Anchorage Center
Sun 09:54:32 PM 56.7500 -175.0333 261° West 460 529 40,000  Level Anchorage Center
Sun 09:55:32 PM 56.7333 -175.2667 263° West 460 529 40,000  Level Anchorage Center
Sun 09:56:32 PM 56.7167 -175.5000 263° West 460 529 40,000  Level Anchorage Center
Sun 09:57:32 PM 56.7000 -175.7333 263° West 460 529 40,000  Level Anchorage Center
Sun 09:58:32 PM 56.6833 -175.9667 263° West 450 518 40,000  Level Anchorage Center
Sun 10:00:34 PM 56.6500 -176.4500 262° West 458 527 40,000  Level Anchorage Center
Sun 10:07:00 PM 56.5119 -178.0254 260° West 458 527 40,000  Level FlightAware Transoceanic
Sun 10:08:00 PM 56.4906 -178.2495 260° West 458 527 40,000  Level FlightAware Transoceanic
Sun 10:09:00 PM 56.4688 -178.4733 260° West 458 527 40,000  Level FlightAware Transoceanic
Sun 10:10:00 PM 56.4467 -178.6969 260° West 458 527 40,000  Level FlightAware Transoceanic
Sun 10:10:13 PM 56.4500 -178.6167 260° West 458 527 40,000  Level Anchorage Center
Sun 10:11:00 PM 56.4241 -178.9202 260° West 458 527 40,000  Level FlightAware Transoceanic
Sun 10:12:00 PM 56.4011 -179.1432 259° West 458 527 40,000  Level FlightAware Transoceanic
Sun 10:13:00 PM 56.3778 -179.3660 259° West 458 527 40,000  Level FlightAware Transoceanic
Sun 10:14:00 PM 56.3540 -179.5885 259° West 458 527 40,000  Level FlightAware Transoceanic
Sun 10:15:00 PM 56.3299 -179.8107 259° West 458 527 40,000  Level FlightAware Transoceanic
Sun 10:16:00 PM 56.3079 -179.9848 259° West 458 527 40,000  Level FlightAware Transoceanic
Sun 10:17:00 PM 56.2827 179.7882 259° West 458 527 40,000  Level FlightAware Transoceanic
Sun 10:18:00 PM 56.2571 179.5615 258° West 458 527 40,000  Level FlightAware Transoceanic
Sun 10:19:00 PM 56.2312 179.3351 258° West 458 527 40,000  Level FlightAware Transoceanic
Sun 10:19:50 PM 56.2167 179.2667 259° West 451 519 40,000  Level Anchorage Center
Sun 10:20:00 PM 56.2048 179.1090 258° West 458 527 40,000  Level FlightAware Transoceanic
Sun 10:21:00 PM 56.1780 178.8832 258° West 458 527 40,000  Level FlightAware Transoceanic
Sun 10:22:00 PM 56.1508 178.6578 258° West 458 527 40,000  Level FlightAware Transoceanic
Sun 10:23:00 PM 56.1231 178.4326 257° West 458 527 40,000  Level FlightAware Transoceanic
Sun 10:24:00 PM 56.0951 178.2078 257° West 458 527 40,000  Level FlightAware Transoceanic
Sun 10:25:00 PM 56.0667 177.9833 254° West 458 527 40,000  Level FlightAware Transoceanic
Sun 10:25:43 PM 56.0667 177.9833 254° West 451 519 40,000  Level Anchorage Center
Sun 10:26:00 PM 56.0337 177.7779 254° West 451 519 40,000  Level FlightAware Transoceanic
Sun 10:27:00 PM 56.0004 177.5728 254° West 451 519 40,000  Level FlightAware Transoceanic
Sun 10:28:00 PM 55.9667 177.3681 254° West 451 519 40,000  Level FlightAware Transoceanic
Sun 10:29:00 PM 55.9327 177.1638 253° West 451 519 40,000  Level FlightAware Transoceanic
Sun 10:29:20 PM 55.9333 177.2000 253° West 453 521 40,000  Level Anchorage Center
Sun 10:30:00 PM 55.8984 176.9598 253° West 451 519 40,000  Level FlightAware Transoceanic
Sun 10:31:00 PM 55.8637 176.7561 253° West 451 519 40,000  Level FlightAware Transoceanic
Sun 10:31:10 PM 55.8667 176.7833 252° West 460 529 40,000  Level Anchorage Center
Sun 10:32:00 PM 55.8487 176.6690 253° West 451 519 40,000  Level FlightAware Transoceanic
Sun 10:32:09 PM 55.8333 176.6167 250° West 440 506 40,000  Level Anchorage Center
Sun 10:33:00 PM 55.8111 176.4514 253° West 451 519 40,000  Level FlightAware Transoceanic
Sun 10:33:09 PM 55.7833 176.3667 251° West 450 518 40,000  Level Anchorage Center
Sun 10:34:00 PM 55.7730 176.2342 253° West 451 519 40,000  Level FlightAware Transoceanic
Sun 10:34:10 PM 55.7500 176.1500 255° West 450 518 40,000  Level Anchorage Center
Sun 10:35:00 PM 55.7137 175.9242 252° West 453 521 40,000  Level FlightAware Transoceanic
Sun 10:35:10 PM 55.7167 175.9500 254° West 460 529 40,000  Level Anchorage Center
Sun 10:36:00 PM 55.6758 175.7129 252° West 453 521 40,000  Level FlightAware Transoceanic
Sun 10:36:10 PM 55.6667 175.7333 248° West 450 518 40,000  Level Anchorage Center
Sun 10:37:10 PM 55.6333 175.5333 254° West 450 518 40,000  Level Anchorage Center
Sun 10:38:10 PM 55.6000 175.3167 255° West 450 518 40,000  Level Anchorage Center
Sun 10:39:10 PM 55.5667 175.1333 252° West 450 518 40,000  Level Anchorage Center
Sun 10:40:10 PM 55.5167 174.9000 249° West 450 518 40,000  Level Anchorage Center
Sun 10:41:10 PM 55.4833 174.7167 252° West 460 529 40,000  Level Anchorage Center
Sun 10:42:10 PM 55.4333 174.4833 249° West 450 518 40,000  Level Anchorage Center
Sun 10:43:10 PM 55.4000 174.2500 256° West 460 529 40,000  Level Anchorage Center
Sun 10:44:10 PM 55.3500 174.0667 244° Southwest 460 529 40,000  Level Anchorage Center
Sun 10:45:10 PM 55.3167 173.8333 256° West 460 529 40,000  Level Anchorage Center
Sun 10:46:10 PM 55.2833 173.6500 252° West 460 529 40,000  Level Anchorage Center
Sun 10:47:11 PM 55.2333 173.4333 248° West 460 529 40,000  Level Anchorage Center
Sun 10:48:11 PM 55.1833 173.2500 245° Southwest 460 529 40,000  Level Anchorage Center
Sun 10:49:11 PM 55.1500 173.0167 256° West 470 541 40,000  Level Anchorage Center
Sun 10:50:10 PM 55.1000 172.7833 250° West 460 529 40,000  Level Anchorage Center
Sun 10:51:11 PM 55.0500 172.6000 245° Southwest 450 518 40,000  Level Anchorage Center
Sun 10:52:11 PM 55.0167 172.3833 255° West 460 529 40,000  Level Anchorage Center
Sun 10:53:11 PM 54.9667 172.1833 247° West 470 541 40,000  Level Anchorage Center
Sun 10:54:11 PM 54.9167 171.9667 248° West 460 529 40,000  Level Anchorage Center
Sun 10:55:11 PM 54.8500 171.8000 235° Southwest 450 518 40,000  Level Anchorage Center
Sun 10:56:11 PM 54.7667 171.6167 232° Southwest 460 529 40,000  Level Anchorage Center
Sun 10:57:11 PM 54.7000 171.4167 240° Southwest 460 529 40,000  Level Anchorage Center
Sun 10:58:11 PM 54.6333 171.2667 233° Southwest 460 529 40,000  Level Anchorage Center
Sun 10:59:12 PM 54.5500 171.0667 234° Southwest 470 541 40,000  Level Anchorage Center
Sun 11:00:11 PM 54.4833 170.9167 233° Southwest 450 518 40,000  Level Anchorage Center
Sun 11:01:11 PM 54.4000 170.7167 234° Southwest 460 529 40,000  Level Anchorage Center
Sun 11:02:11 PM 54.3333 170.5667 233° Southwest 460 529 40,000  Level Anchorage Center
Sun 11:03:11 PM 54.2500 170.3667 235° Southwest 480 552 40,000  Level Anchorage Center
Sun 11:04:11 PM 54.1833 170.2333 230° Southwest 440 506 40,000  Level Anchorage Center
Sun 11:05:12 PM 54.1000 170.0333 235° Southwest 470 541 40,000  Level Anchorage Center
Sun 11:06:12 PM 54.0167 169.8500 232° Southwest 460 529 40,000  Level Anchorage Center
Sun 11:07:12 PM 53.9500 169.7000 233° Southwest 460 529 40,000  Level Anchorage Center
Sun 11:08:12 PM 53.8667 169.5167 232° Southwest 450 518 40,000  Level Anchorage Center
Sun 11:09:12 PM 53.8000 169.3667 233° Southwest 470 541 40,000  Level Anchorage Center
Sun 11:10:12 PM 53.7167 169.1667 235° Southwest 460 529 40,000  Level Anchorage Center
Sun 11:11:12 PM 53.6667 169.0000 243° Southwest 460 529 40,000  Level Anchorage Center
Sun 11:12:12 PM 53.5833 168.8000 235° Southwest 470 541 40,000  Level Anchorage Center
Sun 11:13:12 PM 53.5167 168.6000 241° Southwest 480 552 40,000  Level Anchorage Center
Sun 11:14:13 PM 53.4667 168.4333 243° Southwest 460 529 40,000  Level Anchorage Center
Sun 11:15:20 PM 53.4167 168.2333 239° Southwest 462 532 40,000  Level Anchorage Center
Sun 11:17:19 PM 53.2667 167.8500 239° Southwest 463 533 40,000  Level Anchorage Center
Sun 11:22:00 PM 52.9586 166.9629 238° Southwest 462 532 40,000  Level FlightAware Transoceanic
Sun 11:23:00 PM 52.8766 166.7710 239° Southwest 463 533 40,000  Level FlightAware Transoceanic
Sun 11:24:00 PM 52.8106 166.5930 238° Southwest 463 533 40,000  Level FlightAware Transoceanic
Sun 11:25:00 PM 52.7444 166.4156 238° Southwest 463 533 40,000  Level FlightAware Transoceanic
Sun 11:26:00 PM 52.6779 166.2388 238° Southwest 463 533 40,000  Level FlightAware Transoceanic
Sun 11:27:00 PM 52.6112 166.0625 238° Southwest 463 533 40,000  Level FlightAware Transoceanic
Sun 11:27:00 PM 52.6333 166.1000 238° Southwest 466 536 40,000  Level Anchorage Center
Sun 11:28:00 PM 52.5442 165.8867 238° Southwest 463 533 40,000  Level FlightAware Transoceanic
Sun 11:29:00 PM 52.4769 165.7114 238° Southwest 463 533 40,000  Level FlightAware Transoceanic
Sun 11:30:00 PM 52.4094 165.5367 238° Southwest 463 533 40,000  Level FlightAware Transoceanic
Sun 11:31:00 PM 52.3416 165.3625 237° Southwest 463 533 40,000  Level FlightAware Transoceanic
Sun 11:32:00 PM 52.2736 165.1889 237° Southwest 463 533 40,000  Level FlightAware Transoceanic
Sun 11:33:00 PM 52.2181 165.0367 237° Southwest 466 536 40,000  Level FlightAware Transoceanic
Sun 11:34:00 PM 52.1480 164.8615 237° Southwest 466 536 40,000  Level FlightAware Transoceanic
Sun 11:35:00 PM 52.0776 164.6868 237° Southwest 466 536 40,000  Level FlightAware Transoceanic
Sun 11:36:00 PM 52.0070 164.5126 237° Southwest 466 536 40,000  Level FlightAware Transoceanic
Sun 11:36:34 PM 51.9667 164.4000 236° Southwest 469 540 40,000  Level Anchorage Center
Sun 11:37:00 PM 51.9361 164.3390 236° Southwest 466 536 40,000  Level FlightAware Transoceanic
Sun 11:38:00 PM 51.8650 164.1659 236° Southwest 466 536 40,000  Level FlightAware Transoceanic
Sun 11:39:00 PM 51.7935 163.9934 236° Southwest 466 536 40,000  Level FlightAware Transoceanic
Sun 11:40:00 PM 51.7219 163.8214 236° Southwest 466 536 40,000  Level FlightAware Transoceanic
Sun 11:41:00 PM 51.6500 163.6500 236° Southwest 466 536 40,000  Level FlightAware Transoceanic
Sun 11:41:01 PM 51.6500 163.6500 236° Southwest 468 539 40,000  Level Anchorage Center
Sun 11:42:00 PM 51.5786 163.4780 236° Southwest 466 536 40,000  Level FlightAware Transoceanic
Sun 11:43:00 PM 51.5070 163.3065 236° Southwest 469 540 40,000  Level FlightAware Transoceanic
Sun 11:44:00 PM 51.4352 163.1356 236° Southwest 469 540 40,000  Level FlightAware Transoceanic
Sun 11:45:00 PM 51.3630 162.9652 236° Southwest 469 540 40,000  Level FlightAware Transoceanic
Sun 11:46:00 PM 51.2907 162.7953 236° Southwest 469 540 40,000  Level FlightAware Transoceanic
Sun 11:46:14 PM 51.2667 162.7167 235° Southwest 471 542 40,000  Level Anchorage Center
Sun 11:47:00 PM 51.2006 162.5855 235° Southwest 468 539 40,000  Level FlightAware Transoceanic
Sun 11:48:00 PM 51.1248 162.4101 235° Southwest 468 539 40,000  Level FlightAware Transoceanic
Sun 11:49:00 PM 51.0487 162.2353 235° Southwest 468 539 40,000  Level FlightAware Transoceanic
Sun 11:50:00 PM 50.9724 162.0610 235° Southwest 468 539 40,000  Level FlightAware Transoceanic
Sun 11:51:00 PM 50.8957 161.8874 235° Southwest 468 539 40,000  Level FlightAware Transoceanic
Sun 11:52:00 PM 50.8119 161.6834 235° Southwest 471 542 40,000  Level FlightAware Transoceanic
Sun 11:53:00 PM 50.7353 161.5131 234° Southwest 471 542 40,000  Level FlightAware Transoceanic
Sun 11:54:00 PM 50.6584 161.3434 234° Southwest 471 542 40,000  Level FlightAware Transoceanic
Sun 11:55:00 PM 50.5812 161.1743 234° Southwest 471 542 40,000  Level FlightAware Transoceanic
Sun 11:56:00 PM 50.5038 161.0057 234° Southwest 471 542 40,000  Level FlightAware Transoceanic
Sun 11:56:00 PM 50.5333 161.1000 235° Southwest 477 549 40,000  Level Anchorage Center
Sun 11:57:00 PM 50.4262 160.8377 234° Southwest 471 542 40,000  Level FlightAware Transoceanic
Sun 11:58:00 PM 50.3483 160.6702 234° Southwest 471 542 40,000  Level FlightAware Transoceanic
Sun 11:59:00 PM 50.2701 160.5033 234° Southwest 471 542 40,000  Level FlightAware Transoceanic
Mon 12:00:00 AM 50.1918 160.3369 234° Southwest 471 542 40,000  Level FlightAware Transoceanic
Mon 12:01:00 AM 50.1132 160.1711 233° Southwest 471 542 40,000  Level FlightAware Transoceanic
Mon 12:02:00 AM 50.0465 160.0428 234° Southwest 477 549 40,000  Level FlightAware Transoceanic
Mon 12:03:00 AM 49.9644 159.8687 234° Southwest 477 549 40,000  Level FlightAware Transoceanic
Mon 12:04:00 AM 49.8821 159.6952 234° Southwest 477 549 40,000  Level FlightAware Transoceanic
Mon 12:05:00 AM 49.7995 159.5223 233° Southwest 477 549 40,000  Level FlightAware Transoceanic
Mon 12:06:00 AM 49.7167 159.3500 233° Southwest 477 549 40,000  Level FlightAware Transoceanic
Mon 12:07:00 AM 49.6412 159.1959 233° Southwest 477 549 40,000  Level FlightAware Transoceanic
Mon 12:08:00 AM 49.5655 159.0422 233° Southwest 477 549 40,000  Level FlightAware Transoceanic
Mon 12:09:00 AM 49.4896 158.8891 233° Southwest 477 549 40,000  Level FlightAware Transoceanic
Mon 12:10:00 AM 49.4135 158.7364 232° Southwest 477 549 40,000  Level FlightAware Transoceanic
Mon 12:11:00 AM 49.3372 158.5841 232° Southwest 477 549 40,000  Level FlightAware Transoceanic
Mon 12:12:00 AM 49.2607 158.4324 232° Southwest 477 549 40,000  Level FlightAware Transoceanic
Mon 12:13:00 AM 49.1839 158.2811 232° Southwest 477 549 40,000  Level FlightAware Transoceanic
Mon 12:14:00 AM 49.1070 158.1303 232° Southwest 477 549 40,000  Level FlightAware Transoceanic
Mon 12:15:00 AM 49.0299 157.9799 232° Southwest 477 549 40,000  Level FlightAware Transoceanic
Mon 12:16:00 AM 48.9527 157.8301 232° Southwest 477 549 40,000  Level FlightAware Transoceanic
Mon 12:17:00 AM 48.8752 157.6806 232° Southwest 477 549 40,000  Level FlightAware Transoceanic
Mon 12:18:00 AM 48.7975 157.5317 232° Southwest 477 549 40,000  Level FlightAware Transoceanic
Mon 12:19:00 AM 48.7196 157.3832 231° Southwest 477 549 40,000  Level FlightAware Transoceanic
Mon 12:20:00 AM 48.6416 157.2352 231° Southwest 477 549 40,000  Level FlightAware Transoceanic
Mon 12:21:00 AM 48.5633 157.0876 231° Southwest 477 549 40,000  Level FlightAware Transoceanic
Mon 12:22:00 AM 48.4849 156.9405 231° Southwest 477 549 40,000  Level FlightAware Transoceanic
Mon 12:23:00 AM 48.4063 156.7938 231° Southwest 477 549 40,000  Level FlightAware Transoceanic
Mon 12:24:00 AM 48.3274 156.6476 231° Southwest 477 549 40,000  Level FlightAware Transoceanic
Mon 12:25:00 AM 48.2485 156.5019 231° Southwest 477 549 40,000  Level FlightAware Transoceanic
Mon 12:26:00 AM 48.1693 156.3566 231° Southwest 477 549 40,000  Level FlightAware Transoceanic
Mon 12:27:00 AM 48.0899 156.2117 231° Southwest 477 549 40,000  Level FlightAware Transoceanic
Mon 12:28:00 AM 48.0104 156.0673 230° Southwest 477 549 40,000  Level FlightAware Transoceanic
Mon 12:29:00 AM 47.9307 155.9233 230° Southwest 477 549 40,000  Level FlightAware Transoceanic
Mon 12:30:00 AM 47.8508 155.7798 230° Southwest 477 549 40,000  Level FlightAware Transoceanic
Mon 12:31:00 AM 47.7707 155.6367 230° Southwest 477 549 40,000  Level FlightAware Transoceanic
Mon 12:32:00 AM 47.6904 155.4941 230° Southwest 477 549 40,000  Level FlightAware Transoceanic
Mon 12:33:00 AM 47.6100 155.3519 230° Southwest 477 549 40,000  Level FlightAware Transoceanic
Mon 12:34:00 AM 47.5294 155.2101 230° Southwest 477 549 40,000  Level FlightAware Transoceanic
Mon 12:35:00 AM 47.4486 155.0688 230° Southwest 477 549 40,000  Level FlightAware Transoceanic
Mon 12:36:00 AM 47.3676 154.9279 230° Southwest 477 549 40,000  Level FlightAware Transoceanic
Mon 12:37:00 AM 47.2865 154.7874 230° Southwest 477 549 40,000  Level FlightAware Transoceanic
Mon 12:38:00 AM 47.2052 154.6474 229° Southwest 477 549 40,000  Level FlightAware Transoceanic
Mon 12:39:00 AM 47.1238 154.5078 229° Southwest 477 549 40,000  Level FlightAware Transoceanic
Mon 12:40:00 AM 47.0421 154.3686 229° Southwest 477 549 40,000  Level FlightAware Transoceanic
Mon 12:41:00 AM 46.9603 154.2299 229° Southwest 477 549 40,000  Level FlightAware Transoceanic
Mon 12:42:00 AM 46.8783 154.0915 229° Southwest 477 549 40,000  Level FlightAware Transoceanic
Mon 12:43:00 AM 46.7962 153.9536 229° Southwest 477 549 40,000  Level FlightAware Transoceanic
Mon 12:44:00 AM 46.7139 153.8161 229° Southwest 477 549 40,000  Level FlightAware Transoceanic
Mon 12:45:00 AM 46.6314 153.6791 229° Southwest 477 549 40,000  Level FlightAware Transoceanic
Mon 12:46:00 AM 46.5488 153.5424 229° Southwest 477 549 40,000  Level FlightAware Transoceanic
Mon 12:47:00 AM 46.4660 153.4062 229° Southwest 477 549 40,000  Level FlightAware Transoceanic
Mon 12:48:00 AM 46.3831 153.2704 228° Southwest 477 549 40,000  Level FlightAware Transoceanic
Mon 12:49:00 AM 46.2999 153.1350 228° Southwest 477 549 40,000  Level FlightAware Transoceanic
Mon 12:50:00 AM 46.2166 152.9999 228° Southwest  Level FlightAware Approximate
Mon 12:51:00 AM 46.1306 152.8685 228° Southwest  Level Estimated
Mon 12:52:00 AM 46.0464 152.7348 228° Southwest  Level FlightAware Approximate
Mon 12:53:00 AM 45.9621 152.6015 228° Southwest  Level FlightAware Approximate
Mon 12:54:00 AM 45.8777 152.4686 228° Southwest  Level FlightAware Approximate
Mon 12:55:00 AM 45.7931 152.3361 228° Southwest  Level FlightAware Approximate
Mon 12:56:00 AM 45.7083 152.2040 227° Southwest  Level FlightAware Approximate
Mon 12:57:00 AM 45.6234 152.0724 227° Southwest  Level FlightAware Approximate
Mon 12:58:00 AM 45.5383 151.9411 227° Southwest  Level FlightAware Approximate
Mon 12:59:00 AM 45.4531 151.8102 227° Southwest  Level FlightAware Approximate
Mon 01:00:00 AM 45.3678 151.6797 227° Southwest  Level FlightAware Approximate
Mon 01:01:00 AM 45.2822 151.5496 227° Southwest  Level FlightAware Approximate
Mon 01:02:00 AM 45.1966 151.4199 227° Southwest  Level FlightAware Approximate
Mon 01:03:00 AM 45.1108 151.2906 227° Southwest  Level FlightAware Approximate
Mon 01:04:00 AM 45.0249 151.1616 227° Southwest  Level FlightAware Approximate
Mon 01:05:00 AM 44.9388 151.0331 227° Southwest  Level FlightAware Approximate
Mon 01:06:00 AM 44.8525 150.9049 227° Southwest  Level FlightAware Approximate
Mon 01:07:00 AM 44.7662 150.7772 226° Southwest  Level FlightAware Approximate
Mon 01:08:00 AM 44.6796 150.6498 226° Southwest  Level FlightAware Approximate
Mon 01:09:00 AM 44.5930 150.5228 226° Southwest  Level FlightAware Approximate
Mon 01:10:00 AM 44.5062 150.3961 226° Southwest  Level FlightAware Approximate
Mon 01:11:00 AM 44.4192 150.2699 226° Southwest  Level FlightAware Approximate
Mon 01:12:00 AM 44.3322 150.1440 226° Southwest  Level FlightAware Approximate
Mon 01:13:00 AM 44.2449 150.0185 226° Southwest  Level FlightAware Approximate
Mon 01:14:00 AM 44.1576 149.8934 226° Southwest  Level FlightAware Approximate
Mon 01:15:00 AM 44.0701 149.7686 226° Southwest  Level FlightAware Approximate
Mon 01:16:00 AM 43.9825 149.6442 226° Southwest  Level FlightAware Approximate
Mon 01:17:00 AM 43.8947 149.5202 226° Southwest  Level FlightAware Approximate
Mon 01:18:00 AM 43.8068 149.3965 225° Southwest  Level FlightAware Approximate
Mon 01:19:00 AM 43.7188 149.2732 225° Southwest  Level FlightAware Approximate
Mon 01:20:00 AM 43.6306 149.1503 225° Southwest  Level FlightAware Approximate
Mon 01:21:00 AM 43.5424 149.0277 225° Southwest  Level FlightAware Approximate
Mon 01:22:00 AM 43.4539 148.9055 225° Southwest  Level FlightAware Approximate
Mon 01:22:44 AM 43.4040 148.8350 225° Southwest 420 483 40,000  Level FlightAware ADS-B
Mon 01:23:00 AM 43.3654 148.7836 225° Southwest  Level FlightAware Approximate
Mon 01:23:38 AM 43.3270 148.7290 225° Southwest 419 482 40,000  Level FlightAware ADS-B
Mon 01:24:38 AM 43.2420 148.6140 225° Southwest 420 483 40,000  Level FlightAware ADS-B
Mon 01:25:28 AM 43.1730 148.5190 225° Southwest 428 493 40,000  Level FlightAware ADS-B
Mon 01:26:18 AM 43.1020 148.4230 225° Southwest 429 494 40,000  Level FlightAware ADS-B
Mon 01:27:13 AM 43.0240 148.3170 225° Southwest 430 495 40,000  Level FlightAware ADS-B
Mon 01:27:58 AM 42.9610 148.2320 225° Southwest 429 494 40,000  Level FlightAware ADS-B
Mon 01:28:53 AM 42.8830 148.1280 224° Southwest 429 494 40,000  Level FlightAware ADS-B
Mon 01:29:38 AM 42.8190 148.0420 225° Southwest 429 494 40,000  Level FlightAware ADS-B
Mon 01:30:38 AM 42.7340 147.9290 224° Southwest 429 494 40,000  Level FlightAware ADS-B
Mon 01:31:23 AM 42.6700 147.8440 224° Southwest 429 494 40,000  Level FlightAware ADS-B
Mon 01:32:13 AM 42.6000 147.7510 224° Southwest 427 491 40,000  Level FlightAware ADS-B
Mon 01:32:50 AM 42.5480 147.6820 224° Southwest 425 489 40,000  Level FlightAware ADS-B
Mon 01:33:40 AM 42.4770 147.5890 224° Southwest 424 488 40,000  Level FlightAware ADS-B
Mon 01:34:25 AM 42.4150 147.5070 224° Southwest 424 488 40,000  Level FlightAware ADS-B
Mon 01:35:12 AM 42.3540 147.4280 224° Southwest 425 489 40,000  Level FlightAware ADS-B
Mon 01:35:50 AM 42.2940 147.3490 224° Southwest 425 489 40,000  Level FlightAware ADS-B
Mon 01:36:40 AM 42.2240 147.2580 224° Southwest 423 487 40,000  Level FlightAware ADS-B
Mon 01:37:35 AM 42.1470 147.1570 224° Southwest 425 489 40,000  Level FlightAware ADS-B
Mon 01:38:25 AM 42.0760 147.0650 224° Southwest 426 490 40,000  Level FlightAware ADS-B
Mon 01:39:00 AM 42.0250 147.0000 223° Southwest 427 491 40,000  Level FlightAware ADS-B
Mon 01:39:50 AM 41.9540 146.9080 224° Southwest 429 494 40,000  Level FlightAware ADS-B
Mon 01:40:45 AM 41.8770 146.8090 224° Southwest 424 488 40,000  Level FlightAware ADS-B
Mon 01:41:35 AM 41.8050 146.7170 224° Southwest 424 488 40,000  Level FlightAware ADS-B
Mon 01:42:30 AM 41.7270 146.6170 224° Southwest 423 487 40,000  Level FlightAware ADS-B
Mon 01:43:26 AM 41.6500 146.5180 224° Southwest 420 483 40,000  Level FlightAware ADS-B
Mon 01:43:45 AM 41.6220 146.4830 223° Southwest 420 483 40,000  Level FlightAware ADS-B
Mon 01:44:40 AM 41.5440 146.3850 223° Southwest 420 483 40,000  Level FlightAware ADS-B
Mon 01:45:30 AM 41.4730 146.2950 224° Southwest 418 481 40,000  Level FlightAware ADS-B
Mon 01:46:10 AM 41.4180 146.2260 223° Southwest 417 480 40,000  Level FlightAware ADS-B
Mon 01:46:35 AM 41.3820 146.1810 223° Southwest 416 479 40,000  Level FlightAware ADS-B
Mon 01:47:05 AM 41.3400 146.1280 223° Southwest 416 479 40,000  Level FlightAware ADS-B
Mon 01:47:40 AM 41.2910 146.0660 224° Southwest 417 480 40,000  Level FlightAware ADS-B
Mon 01:48:30 AM 41.2220 145.9790 223° Southwest 416 479 40,000  Level FlightAware ADS-B
Mon 01:49:25 AM 41.1450 145.8830 223° Southwest 416 479 40,000  Level FlightAware ADS-B
Mon 01:50:15 AM 41.0740 145.7960 223° Southwest 417 480 40,000  Level FlightAware ADS-B
Mon 01:50:50 AM 41.0260 145.7370 223° Southwest 416 479 40,000 -1,768 Level FlightAware ADS-B
Mon 01:51:50 AM 40.9440 145.6320 224° Southwest 384 442 37,200 -2,182 Descending FlightAware ADS-B
Mon 01:52:40 AM 40.8890 145.5380 232° Southwest 388 447 36,000 -900 Descending FlightAware ADS-B
Mon 01:53:10 AM 40.8440 145.4930 217° Southwest 402 463 36,000  Level FlightAware ADS-B
Mon 01:53:52 AM 40.7860 145.4450 212° Southwest 401 461 36,000  Level FlightAware ADS-B
Mon 01:54:45 AM 40.7070 145.3550 221° Southwest 384 442 36,000  Level FlightAware ADS-B
Mon 01:55:30 AM 40.6520 145.2840 224° Southwest 386 444 36,000  Level FlightAware ADS-B
Mon 01:56:40 AM 40.5580 145.1670 223° Southwest 384 442 36,000  Level FlightAware ADS-B
Mon 01:57:45 AM 40.4710 145.0600 223° Southwest 385 443 36,000  Level FlightAware ADS-B
Mon 01:58:33 AM 40.4170 144.9920 224° Southwest 385 443 36,000  Level FlightAware ADS-B
Mon 01:58:55 AM 40.3790 144.9470 222° Southwest 391 450 36,000  Level FlightAware ADS-B
Mon 01:59:58 AM 40.3070 144.8620 222° Southwest 391 450 36,000  Level FlightAware ADS-B
Mon 02:00:58 AM 40.2390 144.7820 222° Southwest 391 450 36,000  Level FlightAware ADS-B
Mon 02:01:58 AM 40.1700 144.7010 222° Southwest 391 450 36,000  Level FlightAware ADS-B
Mon 02:02:46 AM 40.1150 144.6360 222° Southwest 391 450 36,000  Level FlightAware ADS-B
Mon 02:03:22 AM 40.0740 144.5880 222° Southwest 391 450 36,000  Level FlightAware ADS-B
Mon 02:04:10 AM 40.0190 144.5230 222° Southwest 391 450 36,000  Level FlightAware ADS-B
Mon 02:05:10 AM 39.9510 144.4430 222° Southwest 391 450 36,000  Level FlightAware ADS-B
Mon 02:05:58 AM 39.8960 144.3780 222° Southwest 391 450 36,000  Level FlightAware ADS-B
Mon 02:06:34 AM 39.8550 144.3300 222° Southwest 391 450 36,000  Level FlightAware ADS-B
Mon 02:07:34 AM 39.7860 144.2500 222° Southwest 391 450 36,000  Level FlightAware ADS-B
Mon 02:08:23 AM 39.7300 144.1840 222° Southwest 391 450 36,000  Level FlightAware ADS-B
Mon 02:10:03 AM 39.4800 143.9370 217° Southwest 395 455 36,000  Level FlightAware ADS-B
Mon 02:10:54 AM 39.3920 143.8590 214° Southwest 391 450 36,000  Level FlightAware ADS-B
Mon 02:11:54 AM 39.3020 143.7790 215° Southwest 389 448 36,000  Level FlightAware ADS-B
Mon 02:12:44 AM 39.2270 143.7120 215° Southwest 388 447 36,000  Level FlightAware ADS-B
Mon 02:13:49 AM 39.1290 143.6260 214° Southwest 413 475 36,000  Level FlightAware ADS-B
Mon 02:14:39 AM 39.0460 143.5530 214° Southwest 428 493 36,000  Level FlightAware ADS-B
Mon 02:15:34 AM 38.9560 143.4750 214° Southwest 432 497 36,000  Level FlightAware ADS-B
Mon 02:16:24 AM 38.8710 143.4000 214° Southwest 428 493 36,000  Level FlightAware ADS-B
Mon 02:16:49 AM 38.8290 143.3640 214° Southwest 428 493 36,000  Level FlightAware ADS-B
Mon 02:17:44 AM 38.7380 143.2840 214° Southwest 432 497 36,000  Level FlightAware ADS-B
Mon 02:18:19 AM 38.6810 143.2340 214° Southwest 430 495 36,000  Level FlightAware ADS-B
Mon 02:19:19 AM 38.5820 143.1470 214° Southwest 428 493 36,000  Level FlightAware ADS-B
Mon 02:20:14 AM 38.4930 143.0700 214° Southwest 426 490 36,000  Level FlightAware ADS-B
Mon 02:21:14 AM 38.3950 142.9840 215° Southwest 417 480 36,000  Level FlightAware ADS-B
Mon 02:21:59 AM 38.3220 142.9210 214° Southwest 426 490 36,000  Level FlightAware ADS-B
Mon 02:23:04 AM 38.2190 142.8310 214° Southwest 414 476 36,000  Level FlightAware ADS-B
Mon 02:23:34 AM 38.1690 142.7890 213° Southwest 413 475 36,000  Level FlightAware ADS-B
Mon 02:24:19 AM 38.0960 142.7260 214° Southwest 415 478 36,000  Level FlightAware ADS-B
Mon 02:24:59 AM 38.0320 142.6710 214° Southwest 414 476 36,000  Level FlightAware ADS-B
Mon 02:25:29 AM 37.9850 142.6300 215° Southwest 413 475 36,000  Level FlightAware ADS-B
Mon 02:25:59 AM 37.9360 142.5880 214° Southwest 414 476 36,000  Level FlightAware ADS-B
Mon 02:26:36 AM 37.8930 142.5520 213° Southwest 414 476 36,000  Level FlightAware ADS-B
Mon 02:27:10 AM 37.8210 142.4910 214° Southwest 415 478 36,000  Level FlightAware ADS-B
Mon 02:27:50 AM 37.7550 142.4340 214° Southwest 424 488 36,000  Level FlightAware ADS-B
Mon 02:28:35 AM 37.6820 142.3730 213° Southwest 424 488 36,000  Level FlightAware ADS-B
Mon 02:29:15 AM 37.6170 142.3180 214° Southwest 415 478 36,000  Level FlightAware ADS-B
Mon 02:30:04 AM 37.5390 142.2510 214° Southwest 415 478 36,000  Level FlightAware ADS-B
Mon 02:30:29 AM 37.5000 142.2190 213° Southwest 421 484 36,000  Level FlightAware ADS-B
Mon 02:31:04 AM 37.4420 142.1700 214° Southwest 411 473 36,000 -120 Level FlightAware ADS-B
Mon 02:32:09 AM 37.3420 142.0860 214° Southwest 368 423 35,800 -840 Descending FlightAware ADS-B
Mon 02:32:44 AM 37.2920 142.0440 214° Southwest 377 434 34,600 -1,600 Descending FlightAware ADS-B
Mon 02:33:24 AM 37.2320 141.9930 214° Southwest 391 450 33,800 -1,371 Descending FlightAware ADS-B
Mon 02:33:54 AM 37.1850 141.9540 213° Southwest 406 467 33,000 -1,200 Descending FlightAware ADS-B
Mon 02:34:29 AM 37.1300 141.9090 213° Southwest 393 452 32,500 -800 Descending FlightAware ADS-B
Mon 02:35:09 AM 37.0690 141.8590 213° Southwest 386 444 32,000 -923 Descending FlightAware ADS-B
Mon 02:35:34 AM 37.0320 141.8270 215° Southwest 388 447 31,500 -1,371 Descending FlightAware ADS-B
Mon 02:36:19 AM 36.9630 141.7700 213° Southwest 390 449 30,400 -1,520 Descending FlightAware ADS-B
Mon 02:36:49 AM 36.9190 141.7330 214° Southwest 386 444 29,600 -1,662 Descending FlightAware ADS-B
Mon 02:37:24 AM 36.8670 141.6910 213° Southwest 382 440 28,600 -1,725 Descending FlightAware ADS-B
Mon 02:38:09 AM 36.8020 141.6370 214° Southwest 367 422 27,300 -1,680 Descending FlightAware ADS-B
Mon 02:38:39 AM 36.7570 141.6010 213° Southwest 367 422 26,500 -1,569 Descending FlightAware ADS-B
Mon 02:39:14 AM 36.7080 141.5600 214° Southwest 365 420 25,600 -1,600 Descending FlightAware ADS-B
Mon 02:39:39 AM 36.6730 141.5310 214° Southwest 366 421 24,900 -1,642 Descending FlightAware ADS-B
Mon 02:40:49 AM 36.5740 141.4500 213° Southwest 362 417 23,000 -1,657 Descending FlightAware ADS-B
Mon 02:41:24 AM 36.5260 141.4110 213° Southwest 354 407 22,000 -1,840 Descending FlightAware ADS-B
Mon 02:42:04 AM 36.4690 141.3640 214° Southwest 352 405 20,700 -1,886 Descending FlightAware ADS-B
Mon 02:42:34 AM 36.4280 141.3310 213° Southwest 348 400 19,800 -1,800 Descending FlightAware ADS-B
Mon 02:43:04 AM 36.3870 141.2980 213° Southwest 352 405 18,900 -1,733 Descending FlightAware ADS-B
Mon 02:44:04 AM 36.3080 141.2330 214° Southwest 347 399 17,200 -1,794 Descending FlightAware ADS-B
Mon 02:44:41 AM 36.2540 141.1900 213° Southwest 343 395 16,000 -1,739 Descending FlightAware ADS-B
Mon 02:45:13 AM 36.2140 141.1580 213° Southwest 340 391 15,200 -1,700 Descending FlightAware ADS-B
Mon 02:45:41 AM 36.1760 141.1270 213° Southwest 338 389 14,300 -2,000 Descending FlightAware ADS-B
Mon 02:46:34 AM 36.1080 141.0720 213° Southwest 344 396 12,500 -1,795 Descending FlightAware ADS-B
Mon 02:47:48 AM 36.0130 140.9950 213° Southwest 330 380 10,500 -1,209 Descending FlightAware ADS-B
Mon 02:48:43 AM 35.9410 140.9420 211° Southwest 295 339 9,900 -532 Descending FlightAware ADS-B
Mon 02:49:07 AM 35.9140 140.9220 211° Southwest 282 325 9,800 -300 Descending FlightAware ADS-B
Mon 02:49:43 AM 35.8750 140.8930 211° Southwest 278 320 9,600 -618 Descending FlightAware ADS-B
Mon 02:50:15 AM 35.8380 140.8660 211° Southwest 284 327 9,100 -1,147 Descending FlightAware ADS-B
Mon 02:50:51 AM 35.7980 140.8370 210° Southwest 283 326 8,300 -1,304 Descending FlightAware ADS-B
Mon 02:51:24 AM 35.7600 140.8090 211° Southwest 282 325 7,600 -1,478 Descending FlightAware ADS-B
Mon 02:52:00 AM 35.7220 140.7800 212° Southwest 268 308 6,600 -1,791 Descending FlightAware ADS-B
Mon 02:52:31 AM 35.6900 140.7550 212° Southwest 254 292 5,600 -1,957 Descending FlightAware ADS-B
Mon 02:52:46 AM 35.6760 140.7440 213° Southwest 248 285 5,100 -1,556 Descending FlightAware ADS-B
Mon 02:53:25 AM 35.6340 140.7130 211° Southwest 248 285 4,200 -911 Descending FlightAware ADS-B
Mon 02:54:05 AM 35.5990 140.6860 212° Southwest 227 261 3,900 -417 Descending FlightAware ADS-B
Mon 02:54:37 AM 35.5710 140.6630 214° Southwest 214 246 3,700 -185 Descending FlightAware ADS-B
Mon 02:55:10 AM 35.5490 140.6310 230° Southwest 223 257 3,700  Level FlightAware ADS-B
Mon 02:55:48 AM 35.5350 140.5910 247° West 195 224 3,700  Level FlightAware ADS-B
Mon 02:56:25 AM 35.5420 140.5500 282° West 183 211 3,700  Level FlightAware ADS-B
Mon 02:56:53 AM 35.5560 140.5280 308° West 173 199 3,700  Level FlightAware ADS-B
Mon 02:57:23 AM 35.5760 140.5110 325° Northwest 169 194 3,700 -563 Level FlightAware ADS-B
Mon 02:57:57 AM 35.5980 140.4950 329° Northwest 168 193 3,100 -1,000 Descending FlightAware ADS-B
Mon 02:58:35 AM 35.6240 140.4760 329° Northwest 168 193 2,500 -857 Descending FlightAware ADS-B
Mon 02:59:07 AM 35.6450 140.4620 332° Northwest 168 193 2,100 -938 Descending FlightAware ADS-B
Mon 02:59:39 AM 35.6670 140.4460 329° Northwest 164 189 1,500 -931 Descending FlightAware ADS-B
Mon 03:00:05 AM 35.6830 140.4340 329° Northwest 147 169 1,200 -706 Descending FlightAware ADS-B
Mon 03:00:47 AM 35.7070 140.4170 330° Northwest 146 168 700 -811 Descending FlightAware ADS-B
Mon 03:01:19 AM 35.7260 140.4040 331° Northwest 143 165 200 -938 Descending FlightAware ADS-B
Mon 03:01:47 AM 35.7410 140.3920 327° Northwest 141 162 -429 Descending FlightAware ADS-B
Mon 03:02:13 AM 35.7530 140.3830 329° Northwest 141 162  Level FlightAware ADS-B

Login

Don't have an account? Register now (free) for customized features, flight alerts, and more!